<?xml version="1.0" encoding="UTF-8" standalone="no" ?>
<gpx xmlns="http://www.topografix.com/GPX/1/1" xmlns:xsi="http://www.w3.org/2001/XMLSchema-instance" xsi:schemaLocation="http://www.topografix.com/GPX/1/1 http://www.topografix.com/GPX/1/1/gpx.xsd" version="1.1" creator="VisuGPX - https://www.visugpx.com">
  <metadata>
    <name>8530873-Grande boucle VELO NORD</name>
  </metadata>
  <trk>
    <name><![CDATA[8530873-Grande boucle VELO NORD]]></name>
    <trkseg>
      <trkpt lat="45.8342" lon="-0.67808">
        <ele>8</ele>
        <time>2020-07-20T07:04:30Z</time>
      </trkpt>
      <trkpt lat="45.83352" lon="-0.68037">
        <ele>10</ele>
        <time>2020-07-20T07:05:01Z</time>
      </trkpt>
      <trkpt lat="45.83355" lon="-0.68109">
        <ele>12</ele>
        <time>2020-07-20T07:05:10Z</time>
      </trkpt>
      <trkpt lat="45.83273" lon="-0.68306">
        <ele>12</ele>
        <time>2020-07-20T07:05:38Z</time>
      </trkpt>
      <trkpt lat="45.83191" lon="-0.6841">
        <ele>11</ele>
        <time>2020-07-20T07:05:58Z</time>
      </trkpt>
      <trkpt lat="45.83127" lon="-0.68517">
        <ele>11</ele>
        <time>2020-07-20T07:06:15Z</time>
      </trkpt>
      <trkpt lat="45.83026" lon="-0.68578">
        <ele>11</ele>
        <time>2020-07-20T07:06:35Z</time>
      </trkpt>
      <trkpt lat="45.8292" lon="-0.68768">
        <ele>16</ele>
        <time>2020-07-20T07:07:05Z</time>
      </trkpt>
      <trkpt lat="45.83094" lon="-0.68883">
        <ele>19</ele>
        <time>2020-07-20T07:07:39Z</time>
      </trkpt>
      <trkpt lat="45.83214" lon="-0.69032">
        <ele>21</ele>
        <time>2020-07-20T07:08:07Z</time>
      </trkpt>
      <trkpt lat="45.83262" lon="-0.69113">
        <ele>21</ele>
        <time>2020-07-20T07:08:20Z</time>
      </trkpt>
      <trkpt lat="45.83328" lon="-0.69325">
        <ele>21</ele>
        <time>2020-07-20T07:08:49Z</time>
      </trkpt>
      <trkpt lat="45.83389" lon="-0.69535">
        <ele>19</ele>
        <time>2020-07-20T07:09:17Z</time>
      </trkpt>
      <trkpt lat="45.83453" lon="-0.6971">
        <ele>18</ele>
        <time>2020-07-20T07:09:42Z</time>
      </trkpt>
      <trkpt lat="45.83563" lon="-0.69939">
        <ele>19</ele>
        <time>2020-07-20T07:10:16Z</time>
      </trkpt>
      <trkpt lat="45.83663" lon="-0.702">
        <ele>21</ele>
        <time>2020-07-20T07:10:53Z</time>
      </trkpt>
      <trkpt lat="45.83698" lon="-0.70388">
        <ele>20</ele>
        <time>2020-07-20T07:11:17Z</time>
      </trkpt>
      <trkpt lat="45.83714" lon="-0.70559">
        <ele>18</ele>
        <time>2020-07-20T07:11:39Z</time>
      </trkpt>
      <trkpt lat="45.83801" lon="-0.70693">
        <ele>18</ele>
        <time>2020-07-20T07:12:01Z</time>
      </trkpt>
      <trkpt lat="45.8385" lon="-0.70722">
        <ele>20</ele>
        <time>2020-07-20T07:12:11Z</time>
      </trkpt>
      <trkpt lat="45.83881" lon="-0.70787">
        <ele>23</ele>
        <time>2020-07-20T07:12:21Z</time>
      </trkpt>
      <trkpt lat="45.84031" lon="-0.70899">
        <ele>26</ele>
        <time>2020-07-20T07:12:51Z</time>
      </trkpt>
      <trkpt lat="45.84212" lon="-0.7098">
        <ele>26</ele>
        <time>2020-07-20T07:13:25Z</time>
      </trkpt>
      <trkpt lat="45.84253" lon="-0.71007">
        <ele>25</ele>
        <time>2020-07-20T07:13:33Z</time>
      </trkpt>
      <trkpt lat="45.84188" lon="-0.70984">
        <ele>26</ele>
        <time>2020-07-20T07:13:44Z</time>
      </trkpt>
      <trkpt lat="45.84114" lon="-0.70951">
        <ele>27</ele>
        <time>2020-07-20T07:13:58Z</time>
      </trkpt>
      <trkpt lat="45.84027" lon="-0.70919">
        <ele>26</ele>
        <time>2020-07-20T07:14:14Z</time>
      </trkpt>
      <trkpt lat="45.83875" lon="-0.70805">
        <ele>23</ele>
        <time>2020-07-20T07:14:45Z</time>
      </trkpt>
      <trkpt lat="45.83842" lon="-0.70735">
        <ele>21</ele>
        <time>2020-07-20T07:14:55Z</time>
      </trkpt>
      <trkpt lat="45.83819" lon="-0.70721">
        <ele>20</ele>
        <time>2020-07-20T07:15:00Z</time>
      </trkpt>
      <trkpt lat="45.83796" lon="-0.7071">
        <ele>19</ele>
        <time>2020-07-20T07:15:04Z</time>
      </trkpt>
      <trkpt lat="45.83766" lon="-0.70753">
        <ele>20</ele>
        <time>2020-07-20T07:15:12Z</time>
      </trkpt>
      <trkpt lat="45.83756" lon="-0.70857">
        <ele>20</ele>
        <time>2020-07-20T07:15:25Z</time>
      </trkpt>
      <trkpt lat="45.83756" lon="-0.70983">
        <ele>22</ele>
        <time>2020-07-20T07:15:40Z</time>
      </trkpt>
      <trkpt lat="45.83764" lon="-0.71079">
        <ele>23</ele>
        <time>2020-07-20T07:15:52Z</time>
      </trkpt>
      <trkpt lat="45.83788" lon="-0.71206">
        <ele>24</ele>
        <time>2020-07-20T07:16:08Z</time>
      </trkpt>
      <trkpt lat="45.83829" lon="-0.71338">
        <ele>26</ele>
        <time>2020-07-20T07:16:26Z</time>
      </trkpt>
      <trkpt lat="45.83889" lon="-0.71461">
        <ele>25</ele>
        <time>2020-07-20T07:16:45Z</time>
      </trkpt>
      <trkpt lat="45.83973" lon="-0.71604">
        <ele>27</ele>
        <time>2020-07-20T07:17:08Z</time>
      </trkpt>
      <trkpt lat="45.83979" lon="-0.71641">
        <ele>27</ele>
        <time>2020-07-20T07:17:13Z</time>
      </trkpt>
      <trkpt lat="45.83939" lon="-0.71749">
        <ele>26</ele>
        <time>2020-07-20T07:17:28Z</time>
      </trkpt>
      <trkpt lat="45.83944" lon="-0.718">
        <ele>27</ele>
        <time>2020-07-20T07:17:34Z</time>
      </trkpt>
      <trkpt lat="45.83799" lon="-0.71878">
        <ele>26</ele>
        <time>2020-07-20T07:18:02Z</time>
      </trkpt>
      <trkpt lat="45.8381" lon="-0.71917">
        <ele>26</ele>
        <time>2020-07-20T07:18:07Z</time>
      </trkpt>
      <trkpt lat="45.83816" lon="-0.72031">
        <ele>27</ele>
        <time>2020-07-20T07:18:21Z</time>
      </trkpt>
      <trkpt lat="45.83822" lon="-0.72082">
        <ele>25</ele>
        <time>2020-07-20T07:18:28Z</time>
      </trkpt>
      <trkpt lat="45.83858" lon="-0.72231">
        <ele>26</ele>
        <time>2020-07-20T07:18:47Z</time>
      </trkpt>
      <trkpt lat="45.8388" lon="-0.72304">
        <ele>26</ele>
        <time>2020-07-20T07:18:57Z</time>
      </trkpt>
      <trkpt lat="45.83929" lon="-0.72348">
        <ele>26</ele>
        <time>2020-07-20T07:19:07Z</time>
      </trkpt>
      <trkpt lat="45.8398" lon="-0.7238">
        <ele>24</ele>
        <time>2020-07-20T07:19:17Z</time>
      </trkpt>
      <trkpt lat="45.8401" lon="-0.72387">
        <ele>24</ele>
        <time>2020-07-20T07:19:23Z</time>
      </trkpt>
      <trkpt lat="45.84061" lon="-0.72531">
        <ele>24</ele>
        <time>2020-07-20T07:19:43Z</time>
      </trkpt>
      <trkpt lat="45.84052" lon="-0.72653">
        <ele>25</ele>
        <time>2020-07-20T07:19:58Z</time>
      </trkpt>
      <trkpt lat="45.84067" lon="-0.7279">
        <ele>27</ele>
        <time>2020-07-20T07:20:15Z</time>
      </trkpt>
      <trkpt lat="45.84081" lon="-0.72892">
        <ele>27</ele>
        <time>2020-07-20T07:20:28Z</time>
      </trkpt>
      <trkpt lat="45.84079" lon="-0.72991">
        <ele>28</ele>
        <time>2020-07-20T07:20:40Z</time>
      </trkpt>
      <trkpt lat="45.84082" lon="-0.73088">
        <ele>28</ele>
        <time>2020-07-20T07:20:52Z</time>
      </trkpt>
      <trkpt lat="45.84107" lon="-0.73171">
        <ele>27</ele>
        <time>2020-07-20T07:21:04Z</time>
      </trkpt>
      <trkpt lat="45.8386" lon="-0.73405">
        <ele>33</ele>
        <time>2020-07-20T07:21:56Z</time>
      </trkpt>
      <trkpt lat="45.83843" lon="-0.73465">
        <ele>32</ele>
        <time>2020-07-20T07:22:04Z</time>
      </trkpt>
      <trkpt lat="45.83766" lon="-0.73566">
        <ele>30</ele>
        <time>2020-07-20T07:22:23Z</time>
      </trkpt>
      <trkpt lat="45.83787" lon="-0.73577">
        <ele>30</ele>
        <time>2020-07-20T07:22:27Z</time>
      </trkpt>
      <trkpt lat="45.83831" lon="-0.73654">
        <ele>31</ele>
        <time>2020-07-20T07:22:39Z</time>
      </trkpt>
      <trkpt lat="45.83869" lon="-0.7367">
        <ele>31</ele>
        <time>2020-07-20T07:22:46Z</time>
      </trkpt>
      <trkpt lat="45.83887" lon="-0.73703">
        <ele>31</ele>
        <time>2020-07-20T07:22:51Z</time>
      </trkpt>
      <trkpt lat="45.83882" lon="-0.73872">
        <ele>30</ele>
        <time>2020-07-20T07:23:12Z</time>
      </trkpt>
      <trkpt lat="45.83885" lon="-0.73934">
        <ele>29</ele>
        <time>2020-07-20T07:23:20Z</time>
      </trkpt>
      <trkpt lat="45.8394" lon="-0.74109">
        <ele>30</ele>
        <time>2020-07-20T07:23:44Z</time>
      </trkpt>
      <trkpt lat="45.84012" lon="-0.74272">
        <ele>31</ele>
        <time>2020-07-20T07:24:08Z</time>
      </trkpt>
      <trkpt lat="45.84113" lon="-0.74451">
        <ele>30</ele>
        <time>2020-07-20T07:24:36Z</time>
      </trkpt>
      <trkpt lat="45.84186" lon="-0.74656">
        <ele>31</ele>
        <time>2020-07-20T07:25:05Z</time>
      </trkpt>
      <trkpt lat="45.84224" lon="-0.74748">
        <ele>29</ele>
        <time>2020-07-20T07:25:18Z</time>
      </trkpt>
      <trkpt lat="45.84271" lon="-0.74814">
        <ele>28</ele>
        <time>2020-07-20T07:25:30Z</time>
      </trkpt>
      <trkpt lat="45.84131" lon="-0.75082">
        <ele>28</ele>
        <time>2020-07-20T07:26:11Z</time>
      </trkpt>
      <trkpt lat="45.84121" lon="-0.7508">
        <ele>27</ele>
        <time>2020-07-20T07:26:13Z</time>
      </trkpt>
      <trkpt lat="45.83867" lon="-0.75184">
        <ele>27</ele>
        <time>2020-07-20T07:27:00Z</time>
      </trkpt>
      <trkpt lat="45.83712" lon="-0.75191">
        <ele>26</ele>
        <time>2020-07-20T07:27:28Z</time>
      </trkpt>
      <trkpt lat="45.83664" lon="-0.7518">
        <ele>26</ele>
        <time>2020-07-20T07:27:36Z</time>
      </trkpt>
      <trkpt lat="45.83572" lon="-0.75177">
        <ele>23</ele>
        <time>2020-07-20T07:27:53Z</time>
      </trkpt>
      <trkpt lat="45.83504" lon="-0.75171">
        <ele>20</ele>
        <time>2020-07-20T07:28:05Z</time>
      </trkpt>
      <trkpt lat="45.83479" lon="-0.75153">
        <ele>20</ele>
        <time>2020-07-20T07:28:10Z</time>
      </trkpt>
      <trkpt lat="45.83357" lon="-0.75127">
        <ele>22</ele>
        <time>2020-07-20T07:28:32Z</time>
      </trkpt>
      <trkpt lat="45.83273" lon="-0.75103">
        <ele>25</ele>
        <time>2020-07-20T07:28:47Z</time>
      </trkpt>
      <trkpt lat="45.83205" lon="-0.75093">
        <ele>24</ele>
        <time>2020-07-20T07:28:59Z</time>
      </trkpt>
      <trkpt lat="45.8309" lon="-0.75161">
        <ele>25</ele>
        <time>2020-07-20T07:29:21Z</time>
      </trkpt>
      <trkpt lat="45.83083" lon="-0.75181">
        <ele>25</ele>
        <time>2020-07-20T07:29:24Z</time>
      </trkpt>
      <trkpt lat="45.83061" lon="-0.75193">
        <ele>25</ele>
        <time>2020-07-20T07:29:28Z</time>
      </trkpt>
      <trkpt lat="45.82949" lon="-0.75226">
        <ele>26</ele>
        <time>2020-07-20T07:29:49Z</time>
      </trkpt>
      <trkpt lat="45.82939" lon="-0.7524">
        <ele>25</ele>
        <time>2020-07-20T07:29:51Z</time>
      </trkpt>
      <trkpt lat="45.82974" lon="-0.75333">
        <ele>28</ele>
        <time>2020-07-20T07:30:04Z</time>
      </trkpt>
      <trkpt lat="45.83012" lon="-0.75459">
        <ele>31</ele>
        <time>2020-07-20T07:30:21Z</time>
      </trkpt>
      <trkpt lat="45.83064" lon="-0.75528">
        <ele>30</ele>
        <time>2020-07-20T07:30:34Z</time>
      </trkpt>
      <trkpt lat="45.8312" lon="-0.7565">
        <ele>29</ele>
        <time>2020-07-20T07:30:52Z</time>
      </trkpt>
      <trkpt lat="45.83163" lon="-0.75797">
        <ele>30</ele>
        <time>2020-07-20T07:31:12Z</time>
      </trkpt>
      <trkpt lat="45.83202" lon="-0.75969">
        <ele>26</ele>
        <time>2020-07-20T07:31:34Z</time>
      </trkpt>
      <trkpt lat="45.83238" lon="-0.76115">
        <ele>25</ele>
        <time>2020-07-20T07:31:53Z</time>
      </trkpt>
      <trkpt lat="45.83165" lon="-0.76145">
        <ele>24</ele>
        <time>2020-07-20T07:32:07Z</time>
      </trkpt>
      <trkpt lat="45.83044" lon="-0.76103">
        <ele>25</ele>
        <time>2020-07-20T07:32:29Z</time>
      </trkpt>
      <trkpt lat="45.83008" lon="-0.76155">
        <ele>25</ele>
        <time>2020-07-20T07:32:38Z</time>
      </trkpt>
      <trkpt lat="45.83097" lon="-0.76247">
        <ele>25</ele>
        <time>2020-07-20T07:32:58Z</time>
      </trkpt>
      <trkpt lat="45.83171" lon="-0.76351">
        <ele>25</ele>
        <time>2020-07-20T07:33:16Z</time>
      </trkpt>
      <trkpt lat="45.83203" lon="-0.7641">
        <ele>26</ele>
        <time>2020-07-20T07:33:25Z</time>
      </trkpt>
      <trkpt lat="45.83242" lon="-0.76494">
        <ele>24</ele>
        <time>2020-07-20T07:33:38Z</time>
      </trkpt>
      <trkpt lat="45.83264" lon="-0.76554">
        <ele>26</ele>
        <time>2020-07-20T07:33:46Z</time>
      </trkpt>
      <trkpt lat="45.83266" lon="-0.76597">
        <ele>27</ele>
        <time>2020-07-20T07:33:52Z</time>
      </trkpt>
      <trkpt lat="45.83302" lon="-0.76718">
        <ele>26</ele>
        <time>2020-07-20T07:34:08Z</time>
      </trkpt>
      <trkpt lat="45.83376" lon="-0.76909">
        <ele>27</ele>
        <time>2020-07-20T07:34:35Z</time>
      </trkpt>
      <trkpt lat="45.83494" lon="-0.77157">
        <ele>30</ele>
        <time>2020-07-20T07:35:12Z</time>
      </trkpt>
      <trkpt lat="45.8355" lon="-0.77263">
        <ele>28</ele>
        <time>2020-07-20T07:35:29Z</time>
      </trkpt>
      <trkpt lat="45.83583" lon="-0.77344">
        <ele>29</ele>
        <time>2020-07-20T07:35:40Z</time>
      </trkpt>
      <trkpt lat="45.83611" lon="-0.77475">
        <ele>26</ele>
        <time>2020-07-20T07:35:57Z</time>
      </trkpt>
      <trkpt lat="45.83556" lon="-0.77526">
        <ele>26</ele>
        <time>2020-07-20T07:36:09Z</time>
      </trkpt>
      <trkpt lat="45.83469" lon="-0.77601">
        <ele>23</ele>
        <time>2020-07-20T07:36:27Z</time>
      </trkpt>
      <trkpt lat="45.83453" lon="-0.77661">
        <ele>23</ele>
        <time>2020-07-20T07:36:35Z</time>
      </trkpt>
      <trkpt lat="45.83456" lon="-0.77766">
        <ele>22</ele>
        <time>2020-07-20T07:36:48Z</time>
      </trkpt>
      <trkpt lat="45.83462" lon="-0.77844">
        <ele>22</ele>
        <time>2020-07-20T07:36:58Z</time>
      </trkpt>
      <trkpt lat="45.8347" lon="-0.78052">
        <ele>20</ele>
        <time>2020-07-20T07:37:24Z</time>
      </trkpt>
      <trkpt lat="45.83368" lon="-0.77962">
        <ele>23</ele>
        <time>2020-07-20T07:37:45Z</time>
      </trkpt>
      <trkpt lat="45.83127" lon="-0.78001">
        <ele>25</ele>
        <time>2020-07-20T07:38:28Z</time>
      </trkpt>
      <trkpt lat="45.82917" lon="-0.78024">
        <ele>25</ele>
        <time>2020-07-20T07:39:06Z</time>
      </trkpt>
      <trkpt lat="45.82485" lon="-0.78098">
        <ele>21</ele>
        <time>2020-07-20T07:40:23Z</time>
      </trkpt>
      <trkpt lat="45.82219" lon="-0.78192">
        <ele>17</ele>
        <time>2020-07-20T07:41:12Z</time>
      </trkpt>
      <trkpt lat="45.82196" lon="-0.78224">
        <ele>16</ele>
        <time>2020-07-20T07:41:17Z</time>
      </trkpt>
      <trkpt lat="45.82141" lon="-0.78331">
        <ele>17</ele>
        <time>2020-07-20T07:41:34Z</time>
      </trkpt>
      <trkpt lat="45.82091" lon="-0.78422">
        <ele>24</ele>
        <time>2020-07-20T07:41:48Z</time>
      </trkpt>
      <trkpt lat="45.82187" lon="-0.78651">
        <ele>18</ele>
        <time>2020-07-20T07:42:21Z</time>
      </trkpt>
      <trkpt lat="45.82224" lon="-0.78748">
        <ele>23</ele>
        <time>2020-07-20T07:42:35Z</time>
      </trkpt>
      <trkpt lat="45.82279" lon="-0.78856">
        <ele>24</ele>
        <time>2020-07-20T07:42:52Z</time>
      </trkpt>
      <trkpt lat="45.82219" lon="-0.78889">
        <ele>24</ele>
        <time>2020-07-20T07:43:03Z</time>
      </trkpt>
      <trkpt lat="45.82161" lon="-0.7891">
        <ele>23</ele>
        <time>2020-07-20T07:43:14Z</time>
      </trkpt>
      <trkpt lat="45.82092" lon="-0.7896">
        <ele>22</ele>
        <time>2020-07-20T07:43:27Z</time>
      </trkpt>
      <trkpt lat="45.82029" lon="-0.78879">
        <ele>19</ele>
        <time>2020-07-20T07:43:43Z</time>
      </trkpt>
      <trkpt lat="45.82009" lon="-0.78822">
        <ele>18</ele>
        <time>2020-07-20T07:43:50Z</time>
      </trkpt>
      <trkpt lat="45.81999" lon="-0.78785">
        <ele>17</ele>
        <time>2020-07-20T07:43:55Z</time>
      </trkpt>
      <trkpt lat="45.81991" lon="-0.78743">
        <ele>16</ele>
        <time>2020-07-20T07:44:01Z</time>
      </trkpt>
      <trkpt lat="45.81953" lon="-0.78629">
        <ele>20</ele>
        <time>2020-07-20T07:44:16Z</time>
      </trkpt>
      <trkpt lat="45.81926" lon="-0.78618">
        <ele>21</ele>
        <time>2020-07-20T07:44:21Z</time>
      </trkpt>
      <trkpt lat="45.81893" lon="-0.78609">
        <ele>23</ele>
        <time>2020-07-20T07:44:27Z</time>
      </trkpt>
      <trkpt lat="45.81835" lon="-0.78668">
        <ele>24</ele>
        <time>2020-07-20T07:44:40Z</time>
      </trkpt>
      <trkpt lat="45.81807" lon="-0.78723">
        <ele>24</ele>
        <time>2020-07-20T07:44:49Z</time>
      </trkpt>
      <trkpt lat="45.81793" lon="-0.78774">
        <ele>23</ele>
        <time>2020-07-20T07:44:55Z</time>
      </trkpt>
      <trkpt lat="45.81769" lon="-0.78975">
        <ele>21</ele>
        <time>2020-07-20T07:45:21Z</time>
      </trkpt>
      <trkpt lat="45.81753" lon="-0.79063">
        <ele>20</ele>
        <time>2020-07-20T07:45:32Z</time>
      </trkpt>
      <trkpt lat="45.81719" lon="-0.79181">
        <ele>17</ele>
        <time>2020-07-20T07:45:48Z</time>
      </trkpt>
      <trkpt lat="45.81669" lon="-0.79286">
        <ele>18</ele>
        <time>2020-07-20T07:46:03Z</time>
      </trkpt>
      <trkpt lat="45.81637" lon="-0.79257">
        <ele>18</ele>
        <time>2020-07-20T07:46:10Z</time>
      </trkpt>
      <trkpt lat="45.81577" lon="-0.79227">
        <ele>19</ele>
        <time>2020-07-20T07:46:22Z</time>
      </trkpt>
      <trkpt lat="45.81515" lon="-0.79257">
        <ele>21</ele>
        <time>2020-07-20T07:46:33Z</time>
      </trkpt>
      <trkpt lat="45.81453" lon="-0.79294">
        <ele>23</ele>
        <time>2020-07-20T07:46:45Z</time>
      </trkpt>
      <trkpt lat="45.81416" lon="-0.79298">
        <ele>25</ele>
        <time>2020-07-20T07:46:52Z</time>
      </trkpt>
      <trkpt lat="45.81312" lon="-0.79263">
        <ele>27</ele>
        <time>2020-07-20T07:47:11Z</time>
      </trkpt>
      <trkpt lat="45.81286" lon="-0.79353">
        <ele>28</ele>
        <time>2020-07-20T07:47:23Z</time>
      </trkpt>
      <trkpt lat="45.81306" lon="-0.79401">
        <ele>27</ele>
        <time>2020-07-20T07:47:30Z</time>
      </trkpt>
      <trkpt lat="45.81372" lon="-0.79487">
        <ele>24</ele>
        <time>2020-07-20T07:47:46Z</time>
      </trkpt>
      <trkpt lat="45.81418" lon="-0.79581">
        <ele>22</ele>
        <time>2020-07-20T07:48:00Z</time>
      </trkpt>
      <trkpt lat="45.81477" lon="-0.79612">
        <ele>22</ele>
        <time>2020-07-20T07:48:11Z</time>
      </trkpt>
      <trkpt lat="45.8147" lon="-0.79658">
        <ele>22</ele>
        <time>2020-07-20T07:48:17Z</time>
      </trkpt>
      <trkpt lat="45.81415" lon="-0.79765">
        <ele>21</ele>
        <time>2020-07-20T07:48:33Z</time>
      </trkpt>
      <trkpt lat="45.81401" lon="-0.79833">
        <ele>22</ele>
        <time>2020-07-20T07:48:42Z</time>
      </trkpt>
      <trkpt lat="45.81459" lon="-0.80058">
        <ele>28</ele>
        <time>2020-07-20T07:49:12Z</time>
      </trkpt>
      <trkpt lat="45.81465" lon="-0.80159">
        <ele>30</ele>
        <time>2020-07-20T07:49:24Z</time>
      </trkpt>
      <trkpt lat="45.81419" lon="-0.80263">
        <ele>30</ele>
        <time>2020-07-20T07:49:40Z</time>
      </trkpt>
      <trkpt lat="45.81324" lon="-0.80518">
        <ele>27</ele>
        <time>2020-07-20T07:50:16Z</time>
      </trkpt>
      <trkpt lat="45.81356" lon="-0.80669">
        <ele>28</ele>
        <time>2020-07-20T07:50:35Z</time>
      </trkpt>
      <trkpt lat="45.81402" lon="-0.80858">
        <ele>30</ele>
        <time>2020-07-20T07:51:00Z</time>
      </trkpt>
      <trkpt lat="45.81405" lon="-0.80952">
        <ele>33</ele>
        <time>2020-07-20T07:51:12Z</time>
      </trkpt>
      <trkpt lat="45.81505" lon="-0.81131">
        <ele>40</ele>
        <time>2020-07-20T07:51:40Z</time>
      </trkpt>
      <trkpt lat="45.81533" lon="-0.81214">
        <ele>40</ele>
        <time>2020-07-20T07:51:52Z</time>
      </trkpt>
      <trkpt lat="45.81497" lon="-0.81472">
        <ele>34</ele>
        <time>2020-07-20T07:52:24Z</time>
      </trkpt>
      <trkpt lat="45.81582" lon="-0.81512">
        <ele>34</ele>
        <time>2020-07-20T07:52:40Z</time>
      </trkpt>
      <trkpt lat="45.81676" lon="-0.81564">
        <ele>34</ele>
        <time>2020-07-20T07:52:58Z</time>
      </trkpt>
      <trkpt lat="45.81743" lon="-0.81595">
        <ele>33</ele>
        <time>2020-07-20T07:53:11Z</time>
      </trkpt>
      <trkpt lat="45.81849" lon="-0.81691">
        <ele>36</ele>
        <time>2020-07-20T07:53:33Z</time>
      </trkpt>
      <trkpt lat="45.8194" lon="-0.81827">
        <ele>40</ele>
        <time>2020-07-20T07:53:56Z</time>
      </trkpt>
      <trkpt lat="45.81999" lon="-0.81896">
        <ele>39</ele>
        <time>2020-07-20T07:54:10Z</time>
      </trkpt>
      <trkpt lat="45.82086" lon="-0.81975">
        <ele>36</ele>
        <time>2020-07-20T07:54:28Z</time>
      </trkpt>
      <trkpt lat="45.82303" lon="-0.82152">
        <ele>35</ele>
        <time>2020-07-20T07:55:13Z</time>
      </trkpt>
      <trkpt lat="45.82271" lon="-0.82241">
        <ele>35</ele>
        <time>2020-07-20T07:55:25Z</time>
      </trkpt>
      <trkpt lat="45.82248" lon="-0.82293">
        <ele>36</ele>
        <time>2020-07-20T07:55:33Z</time>
      </trkpt>
      <trkpt lat="45.82208" lon="-0.82352">
        <ele>37</ele>
        <time>2020-07-20T07:55:43Z</time>
      </trkpt>
      <trkpt lat="45.82167" lon="-0.82402">
        <ele>37</ele>
        <time>2020-07-20T07:55:52Z</time>
      </trkpt>
      <trkpt lat="45.82137" lon="-0.82449">
        <ele>38</ele>
        <time>2020-07-20T07:56:00Z</time>
      </trkpt>
      <trkpt lat="45.82114" lon="-0.82505">
        <ele>39</ele>
        <time>2020-07-20T07:56:08Z</time>
      </trkpt>
      <trkpt lat="45.82086" lon="-0.82605">
        <ele>38</ele>
        <time>2020-07-20T07:56:22Z</time>
      </trkpt>
      <trkpt lat="45.82063" lon="-0.82667">
        <ele>37</ele>
        <time>2020-07-20T07:56:30Z</time>
      </trkpt>
      <trkpt lat="45.8203" lon="-0.82791">
        <ele>36</ele>
        <time>2020-07-20T07:56:47Z</time>
      </trkpt>
      <trkpt lat="45.81985" lon="-0.82871">
        <ele>35</ele>
        <time>2020-07-20T07:57:00Z</time>
      </trkpt>
      <trkpt lat="45.81876" lon="-0.83013">
        <ele>34</ele>
        <time>2020-07-20T07:57:26Z</time>
      </trkpt>
      <trkpt lat="45.81862" lon="-0.83071">
        <ele>34</ele>
        <time>2020-07-20T07:57:33Z</time>
      </trkpt>
      <trkpt lat="45.81919" lon="-0.83228">
        <ele>32</ele>
        <time>2020-07-20T07:57:55Z</time>
      </trkpt>
      <trkpt lat="45.81929" lon="-0.83279">
        <ele>32</ele>
        <time>2020-07-20T07:58:02Z</time>
      </trkpt>
      <trkpt lat="45.81856" lon="-0.83331">
        <ele>32</ele>
        <time>2020-07-20T07:58:16Z</time>
      </trkpt>
      <trkpt lat="45.81701" lon="-0.83507">
        <ele>32</ele>
        <time>2020-07-20T07:58:52Z</time>
      </trkpt>
      <trkpt lat="45.81571" lon="-0.83749">
        <ele>30</ele>
        <time>2020-07-20T07:59:29Z</time>
      </trkpt>
      <trkpt lat="45.81511" lon="-0.8383">
        <ele>30</ele>
        <time>2020-07-20T07:59:44Z</time>
      </trkpt>
      <trkpt lat="45.81453" lon="-0.83866">
        <ele>30</ele>
        <time>2020-07-20T07:59:55Z</time>
      </trkpt>
      <trkpt lat="45.8129" lon="-0.8396">
        <ele>29</ele>
        <time>2020-07-20T08:00:27Z</time>
      </trkpt>
      <trkpt lat="45.81088" lon="-0.84242">
        <ele>21</ele>
        <time>2020-07-20T08:01:17Z</time>
      </trkpt>
      <trkpt lat="45.81153" lon="-0.84383">
        <ele>20</ele>
        <time>2020-07-20T08:01:38Z</time>
      </trkpt>
      <trkpt lat="45.81223" lon="-0.84543">
        <ele>16</ele>
        <time>2020-07-20T08:02:01Z</time>
      </trkpt>
      <trkpt lat="45.81318" lon="-0.848">
        <ele>14</ele>
        <time>2020-07-20T08:02:37Z</time>
      </trkpt>
      <trkpt lat="45.81416" lon="-0.84926">
        <ele>15</ele>
        <time>2020-07-20T08:03:01Z</time>
      </trkpt>
      <trkpt lat="45.81455" lon="-0.84954">
        <ele>15</ele>
        <time>2020-07-20T08:03:08Z</time>
      </trkpt>
      <trkpt lat="45.81497" lon="-0.84946">
        <ele>15</ele>
        <time>2020-07-20T08:03:16Z</time>
      </trkpt>
      <trkpt lat="45.81584" lon="-0.84975">
        <ele>17</ele>
        <time>2020-07-20T08:03:32Z</time>
      </trkpt>
      <trkpt lat="45.81618" lon="-0.8508">
        <ele>19</ele>
        <time>2020-07-20T08:03:46Z</time>
      </trkpt>
      <trkpt lat="45.81494" lon="-0.85156">
        <ele>15</ele>
        <time>2020-07-20T08:04:10Z</time>
      </trkpt>
      <trkpt lat="45.81433" lon="-0.85243">
        <ele>13</ele>
        <time>2020-07-20T08:04:26Z</time>
      </trkpt>
      <trkpt lat="45.81439" lon="-0.85276">
        <ele>13</ele>
        <time>2020-07-20T08:04:30Z</time>
      </trkpt>
      <trkpt lat="45.81459" lon="-0.85325">
        <ele>14</ele>
        <time>2020-07-20T08:04:37Z</time>
      </trkpt>
      <trkpt lat="45.81458" lon="-0.85369">
        <ele>13</ele>
        <time>2020-07-20T08:04:42Z</time>
      </trkpt>
      <trkpt lat="45.81444" lon="-0.85451">
        <ele>13</ele>
        <time>2020-07-20T08:04:53Z</time>
      </trkpt>
      <trkpt lat="45.81451" lon="-0.85469">
        <ele>13</ele>
        <time>2020-07-20T08:04:55Z</time>
      </trkpt>
      <trkpt lat="45.81573" lon="-0.85538">
        <ele>14</ele>
        <time>2020-07-20T08:05:19Z</time>
      </trkpt>
      <trkpt lat="45.81637" lon="-0.85569">
        <ele>13</ele>
        <time>2020-07-20T08:05:31Z</time>
      </trkpt>
      <trkpt lat="45.81776" lon="-0.85496">
        <ele>13</ele>
        <time>2020-07-20T08:05:57Z</time>
      </trkpt>
      <trkpt lat="45.81804" lon="-0.85568">
        <ele>14</ele>
        <time>2020-07-20T08:06:07Z</time>
      </trkpt>
      <trkpt lat="45.81854" lon="-0.85727">
        <ele>11</ele>
        <time>2020-07-20T08:06:29Z</time>
      </trkpt>
      <trkpt lat="45.81881" lon="-0.85768">
        <ele>12</ele>
        <time>2020-07-20T08:06:36Z</time>
      </trkpt>
      <trkpt lat="45.8192" lon="-0.85771">
        <ele>14</ele>
        <time>2020-07-20T08:06:43Z</time>
      </trkpt>
      <trkpt lat="45.81963" lon="-0.85861">
        <ele>15</ele>
        <time>2020-07-20T08:06:56Z</time>
      </trkpt>
      <trkpt lat="45.82012" lon="-0.86">
        <ele>16</ele>
        <time>2020-07-20T08:07:16Z</time>
      </trkpt>
      <trkpt lat="45.82043" lon="-0.86056">
        <ele>16</ele>
        <time>2020-07-20T08:07:24Z</time>
      </trkpt>
      <trkpt lat="45.8208" lon="-0.86105">
        <ele>16</ele>
        <time>2020-07-20T08:07:33Z</time>
      </trkpt>
      <trkpt lat="45.82153" lon="-0.86165">
        <ele>16</ele>
        <time>2020-07-20T08:07:48Z</time>
      </trkpt>
      <trkpt lat="45.82167" lon="-0.86202">
        <ele>15</ele>
        <time>2020-07-20T08:07:54Z</time>
      </trkpt>
      <trkpt lat="45.82219" lon="-0.86268">
        <ele>13</ele>
        <time>2020-07-20T08:08:06Z</time>
      </trkpt>
      <trkpt lat="45.82303" lon="-0.86352">
        <ele>15</ele>
        <time>2020-07-20T08:08:24Z</time>
      </trkpt>
      <trkpt lat="45.82347" lon="-0.86402">
        <ele>14</ele>
        <time>2020-07-20T08:08:34Z</time>
      </trkpt>
      <trkpt lat="45.82371" lon="-0.86446">
        <ele>14</ele>
        <time>2020-07-20T08:08:41Z</time>
      </trkpt>
      <trkpt lat="45.82392" lon="-0.8651">
        <ele>14</ele>
        <time>2020-07-20T08:08:50Z</time>
      </trkpt>
      <trkpt lat="45.82398" lon="-0.86553">
        <ele>15</ele>
        <time>2020-07-20T08:08:55Z</time>
      </trkpt>
      <trkpt lat="45.82398" lon="-0.86611">
        <ele>15</ele>
        <time>2020-07-20T08:09:03Z</time>
      </trkpt>
      <trkpt lat="45.82405" lon="-0.86708">
        <ele>14</ele>
        <time>2020-07-20T08:09:15Z</time>
      </trkpt>
      <trkpt lat="45.82402" lon="-0.86838">
        <ele>12</ele>
        <time>2020-07-20T08:09:31Z</time>
      </trkpt>
      <trkpt lat="45.82418" lon="-0.86906">
        <ele>12</ele>
        <time>2020-07-20T08:09:40Z</time>
      </trkpt>
      <trkpt lat="45.82411" lon="-0.87009">
        <ele>11</ele>
        <time>2020-07-20T08:09:52Z</time>
      </trkpt>
      <trkpt lat="45.82418" lon="-0.87056">
        <ele>12</ele>
        <time>2020-07-20T08:09:58Z</time>
      </trkpt>
      <trkpt lat="45.82467" lon="-0.87168">
        <ele>13</ele>
        <time>2020-07-20T08:10:15Z</time>
      </trkpt>
      <trkpt lat="45.82695" lon="-0.87008">
        <ele>22</ele>
        <time>2020-07-20T08:11:00Z</time>
      </trkpt>
      <trkpt lat="45.82767" lon="-0.8717">
        <ele>21</ele>
        <time>2020-07-20T08:11:24Z</time>
      </trkpt>
      <trkpt lat="45.8282" lon="-0.87268">
        <ele>21</ele>
        <time>2020-07-20T08:11:39Z</time>
      </trkpt>
      <trkpt lat="45.82853" lon="-0.8732">
        <ele>21</ele>
        <time>2020-07-20T08:11:48Z</time>
      </trkpt>
      <trkpt lat="45.82838" lon="-0.87337">
        <ele>21</ele>
        <time>2020-07-20T08:11:51Z</time>
      </trkpt>
      <trkpt lat="45.82831" lon="-0.87378">
        <ele>20</ele>
        <time>2020-07-20T08:11:57Z</time>
      </trkpt>
      <trkpt lat="45.82809" lon="-0.87404">
        <ele>20</ele>
        <time>2020-07-20T08:12:02Z</time>
      </trkpt>
      <trkpt lat="45.82849" lon="-0.87534">
        <ele>22</ele>
        <time>2020-07-20T08:12:19Z</time>
      </trkpt>
      <trkpt lat="45.82875" lon="-0.8756">
        <ele>22</ele>
        <time>2020-07-20T08:12:25Z</time>
      </trkpt>
      <trkpt lat="45.82925" lon="-0.87574">
        <ele>22</ele>
        <time>2020-07-20T08:12:34Z</time>
      </trkpt>
      <trkpt lat="45.82995" lon="-0.87626">
        <ele>18</ele>
        <time>2020-07-20T08:12:48Z</time>
      </trkpt>
      <trkpt lat="45.82975" lon="-0.87669">
        <ele>18</ele>
        <time>2020-07-20T08:12:54Z</time>
      </trkpt>
      <trkpt lat="45.82954" lon="-0.877">
        <ele>17</ele>
        <time>2020-07-20T08:13:00Z</time>
      </trkpt>
      <trkpt lat="45.8291" lon="-0.87744">
        <ele>13</ele>
        <time>2020-07-20T08:13:09Z</time>
      </trkpt>
      <trkpt lat="45.82937" lon="-0.87786">
        <ele>12</ele>
        <time>2020-07-20T08:13:16Z</time>
      </trkpt>
      <trkpt lat="45.82986" lon="-0.87833">
        <ele>12</ele>
        <time>2020-07-20T08:13:27Z</time>
      </trkpt>
      <trkpt lat="45.83045" lon="-0.87876">
        <ele>12</ele>
        <time>2020-07-20T08:13:39Z</time>
      </trkpt>
      <trkpt lat="45.8312" lon="-0.87884">
        <ele>16</ele>
        <time>2020-07-20T08:13:52Z</time>
      </trkpt>
      <trkpt lat="45.83159" lon="-0.87883">
        <ele>18</ele>
        <time>2020-07-20T08:13:59Z</time>
      </trkpt>
      <trkpt lat="45.83187" lon="-0.8783">
        <ele>21</ele>
        <time>2020-07-20T08:14:07Z</time>
      </trkpt>
      <trkpt lat="45.83277" lon="-0.87927">
        <ele>20</ele>
        <time>2020-07-20T08:14:27Z</time>
      </trkpt>
      <trkpt lat="45.83423" lon="-0.88063">
        <ele>19</ele>
        <time>2020-07-20T08:14:58Z</time>
      </trkpt>
      <trkpt lat="45.83507" lon="-0.88138">
        <ele>20</ele>
        <time>2020-07-20T08:15:16Z</time>
      </trkpt>
      <trkpt lat="45.8357" lon="-0.88172">
        <ele>18</ele>
        <time>2020-07-20T08:15:28Z</time>
      </trkpt>
      <trkpt lat="45.83645" lon="-0.88177">
        <ele>19</ele>
        <time>2020-07-20T08:15:41Z</time>
      </trkpt>
      <trkpt lat="45.83631" lon="-0.88206">
        <ele>19</ele>
        <time>2020-07-20T08:15:45Z</time>
      </trkpt>
      <trkpt lat="45.83564" lon="-0.88293">
        <ele>17</ele>
        <time>2020-07-20T08:16:02Z</time>
      </trkpt>
      <trkpt lat="45.83496" lon="-0.88363">
        <ele>16</ele>
        <time>2020-07-20T08:16:16Z</time>
      </trkpt>
      <trkpt lat="45.83494" lon="-0.88388">
        <ele>17</ele>
        <time>2020-07-20T08:16:20Z</time>
      </trkpt>
      <trkpt lat="45.83499" lon="-0.88421">
        <ele>17</ele>
        <time>2020-07-20T08:16:24Z</time>
      </trkpt>
      <trkpt lat="45.83485" lon="-0.88556">
        <ele>18</ele>
        <time>2020-07-20T08:16:41Z</time>
      </trkpt>
      <trkpt lat="45.83505" lon="-0.88673">
        <ele>18</ele>
        <time>2020-07-20T08:16:56Z</time>
      </trkpt>
      <trkpt lat="45.83563" lon="-0.88806">
        <ele>12</ele>
        <time>2020-07-20T08:17:15Z</time>
      </trkpt>
      <trkpt lat="45.83659" lon="-0.88987">
        <ele>10</ele>
        <time>2020-07-20T08:17:43Z</time>
      </trkpt>
      <trkpt lat="45.83884" lon="-0.89384">
        <ele>11</ele>
        <time>2020-07-20T08:18:47Z</time>
      </trkpt>
      <trkpt lat="45.83936" lon="-0.8946">
        <ele>12</ele>
        <time>2020-07-20T08:19:00Z</time>
      </trkpt>
      <trkpt lat="45.84032" lon="-0.89533">
        <ele>11</ele>
        <time>2020-07-20T08:19:19Z</time>
      </trkpt>
      <trkpt lat="45.84097" lon="-0.8955">
        <ele>11</ele>
        <time>2020-07-20T08:19:31Z</time>
      </trkpt>
      <trkpt lat="45.84112" lon="-0.89497">
        <ele>12</ele>
        <time>2020-07-20T08:19:38Z</time>
      </trkpt>
      <trkpt lat="45.8418" lon="-0.89293">
        <ele>17</ele>
        <time>2020-07-20T08:20:06Z</time>
      </trkpt>
      <trkpt lat="45.84196" lon="-0.89239">
        <ele>18</ele>
        <time>2020-07-20T08:20:13Z</time>
      </trkpt>
      <trkpt lat="45.84225" lon="-0.89172">
        <ele>18</ele>
        <time>2020-07-20T08:20:23Z</time>
      </trkpt>
      <trkpt lat="45.84319" lon="-0.89038">
        <ele>19</ele>
        <time>2020-07-20T08:20:47Z</time>
      </trkpt>
      <trkpt lat="45.84356" lon="-0.88969">
        <ele>18</ele>
        <time>2020-07-20T08:20:58Z</time>
      </trkpt>
      <trkpt lat="45.84412" lon="-0.88875">
        <ele>21</ele>
        <time>2020-07-20T08:21:13Z</time>
      </trkpt>
      <trkpt lat="45.84484" lon="-0.88707">
        <ele>23</ele>
        <time>2020-07-20T08:21:37Z</time>
      </trkpt>
      <trkpt lat="45.84522" lon="-0.88612">
        <ele>21</ele>
        <time>2020-07-20T08:21:51Z</time>
      </trkpt>
      <trkpt lat="45.84535" lon="-0.88562">
        <ele>21</ele>
        <time>2020-07-20T08:21:57Z</time>
      </trkpt>
      <trkpt lat="45.8453" lon="-0.88408">
        <ele>21</ele>
        <time>2020-07-20T08:22:17Z</time>
      </trkpt>
      <trkpt lat="45.84534" lon="-0.88364">
        <ele>22</ele>
        <time>2020-07-20T08:22:22Z</time>
      </trkpt>
      <trkpt lat="45.84574" lon="-0.88324">
        <ele>23</ele>
        <time>2020-07-20T08:22:31Z</time>
      </trkpt>
      <trkpt lat="45.84648" lon="-0.88263">
        <ele>25</ele>
        <time>2020-07-20T08:22:46Z</time>
      </trkpt>
      <trkpt lat="45.84846" lon="-0.88121">
        <ele>28</ele>
        <time>2020-07-20T08:23:25Z</time>
      </trkpt>
      <trkpt lat="45.84727" lon="-0.87725">
        <ele>28</ele>
        <time>2020-07-20T08:24:19Z</time>
      </trkpt>
      <trkpt lat="45.84633" lon="-0.87392">
        <ele>31</ele>
        <time>2020-07-20T08:25:03Z</time>
      </trkpt>
      <trkpt lat="45.8471" lon="-0.87361">
        <ele>30</ele>
        <time>2020-07-20T08:25:18Z</time>
      </trkpt>
      <trkpt lat="45.84757" lon="-0.87364">
        <ele>30</ele>
        <time>2020-07-20T08:25:26Z</time>
      </trkpt>
      <trkpt lat="45.84908" lon="-0.87394">
        <ele>27</ele>
        <time>2020-07-20T08:25:53Z</time>
      </trkpt>
      <trkpt lat="45.85034" lon="-0.87434">
        <ele>25</ele>
        <time>2020-07-20T08:26:16Z</time>
      </trkpt>
      <trkpt lat="45.85077" lon="-0.87419">
        <ele>24</ele>
        <time>2020-07-20T08:26:24Z</time>
      </trkpt>
      <trkpt lat="45.85124" lon="-0.87389">
        <ele>23</ele>
        <time>2020-07-20T08:26:33Z</time>
      </trkpt>
      <trkpt lat="45.852" lon="-0.87352">
        <ele>22</ele>
        <time>2020-07-20T08:26:47Z</time>
      </trkpt>
      <trkpt lat="45.85254" lon="-0.87352">
        <ele>23</ele>
        <time>2020-07-20T08:26:57Z</time>
      </trkpt>
      <trkpt lat="45.85409" lon="-0.87458">
        <ele>23</ele>
        <time>2020-07-20T08:27:27Z</time>
      </trkpt>
      <trkpt lat="45.85528" lon="-0.87556">
        <ele>22</ele>
        <time>2020-07-20T08:27:52Z</time>
      </trkpt>
      <trkpt lat="45.85606" lon="-0.87589">
        <ele>21</ele>
        <time>2020-07-20T08:28:06Z</time>
      </trkpt>
      <trkpt lat="45.85763" lon="-0.87604">
        <ele>21</ele>
        <time>2020-07-20T08:28:34Z</time>
      </trkpt>
      <trkpt lat="45.8592" lon="-0.87603">
        <ele>21</ele>
        <time>2020-07-20T08:29:02Z</time>
      </trkpt>
      <trkpt lat="45.85972" lon="-0.87635">
        <ele>21</ele>
        <time>2020-07-20T08:29:12Z</time>
      </trkpt>
      <trkpt lat="45.86029" lon="-0.87678">
        <ele>19</ele>
        <time>2020-07-20T08:29:24Z</time>
      </trkpt>
      <trkpt lat="45.86123" lon="-0.87696">
        <ele>19</ele>
        <time>2020-07-20T08:29:41Z</time>
      </trkpt>
      <trkpt lat="45.86259" lon="-0.87744">
        <ele>20</ele>
        <time>2020-07-20T08:30:06Z</time>
      </trkpt>
      <trkpt lat="45.86398" lon="-0.87807">
        <ele>21</ele>
        <time>2020-07-20T08:30:32Z</time>
      </trkpt>
      <trkpt lat="45.86536" lon="-0.87849">
        <ele>21</ele>
        <time>2020-07-20T08:30:57Z</time>
      </trkpt>
      <trkpt lat="45.86602" lon="-0.8786">
        <ele>21</ele>
        <time>2020-07-20T08:31:08Z</time>
      </trkpt>
      <trkpt lat="45.86661" lon="-0.8788">
        <ele>22</ele>
        <time>2020-07-20T08:31:19Z</time>
      </trkpt>
      <trkpt lat="45.8669" lon="-0.87938">
        <ele>21</ele>
        <time>2020-07-20T08:31:28Z</time>
      </trkpt>
      <trkpt lat="45.86739" lon="-0.88076">
        <ele>20</ele>
        <time>2020-07-20T08:31:47Z</time>
      </trkpt>
      <trkpt lat="45.86761" lon="-0.88187">
        <ele>19</ele>
        <time>2020-07-20T08:32:02Z</time>
      </trkpt>
      <trkpt lat="45.86978" lon="-0.8824">
        <ele>19</ele>
        <time>2020-07-20T08:32:41Z</time>
      </trkpt>
      <trkpt lat="45.87096" lon="-0.88125">
        <ele>19</ele>
        <time>2020-07-20T08:33:06Z</time>
      </trkpt>
      <trkpt lat="45.87208" lon="-0.88057">
        <ele>19</ele>
        <time>2020-07-20T08:33:28Z</time>
      </trkpt>
      <trkpt lat="45.87297" lon="-0.87953">
        <ele>18</ele>
        <time>2020-07-20T08:33:48Z</time>
      </trkpt>
      <trkpt lat="45.87371" lon="-0.87972">
        <ele>18</ele>
        <time>2020-07-20T08:34:02Z</time>
      </trkpt>
      <trkpt lat="45.87467" lon="-0.88041">
        <ele>18</ele>
        <time>2020-07-20T08:34:21Z</time>
      </trkpt>
      <trkpt lat="45.87637" lon="-0.88199">
        <ele>17</ele>
        <time>2020-07-20T08:34:57Z</time>
      </trkpt>
      <trkpt lat="45.87701" lon="-0.88347">
        <ele>17</ele>
        <time>2020-07-20T08:35:18Z</time>
      </trkpt>
      <trkpt lat="45.87799" lon="-0.88483">
        <ele>16</ele>
        <time>2020-07-20T08:35:42Z</time>
      </trkpt>
      <trkpt lat="45.87823" lon="-0.88635">
        <ele>16</ele>
        <time>2020-07-20T08:36:02Z</time>
      </trkpt>
      <trkpt lat="45.87821" lon="-0.88791">
        <ele>14</ele>
        <time>2020-07-20T08:36:21Z</time>
      </trkpt>
      <trkpt lat="45.87884" lon="-0.88796">
        <ele>12</ele>
        <time>2020-07-20T08:36:32Z</time>
      </trkpt>
      <trkpt lat="45.87926" lon="-0.88807">
        <ele>10</ele>
        <time>2020-07-20T08:36:40Z</time>
      </trkpt>
      <trkpt lat="45.8796" lon="-0.8883">
        <ele>11</ele>
        <time>2020-07-20T08:36:47Z</time>
      </trkpt>
      <trkpt lat="45.88011" lon="-0.88918">
        <ele>10</ele>
        <time>2020-07-20T08:37:01Z</time>
      </trkpt>
      <trkpt lat="45.88095" lon="-0.89156">
        <ele>9</ele>
        <time>2020-07-20T08:37:34Z</time>
      </trkpt>
      <trkpt lat="45.88153" lon="-0.89346">
        <ele>9</ele>
        <time>2020-07-20T08:38:00Z</time>
      </trkpt>
      <trkpt lat="45.88183" lon="-0.8953">
        <ele>13</ele>
        <time>2020-07-20T08:38:23Z</time>
      </trkpt>
      <trkpt lat="45.88199" lon="-0.89697">
        <ele>12</ele>
        <time>2020-07-20T08:38:44Z</time>
      </trkpt>
      <trkpt lat="45.88143" lon="-0.89697">
        <ele>10</ele>
        <time>2020-07-20T08:38:54Z</time>
      </trkpt>
      <trkpt lat="45.88137" lon="-0.89781">
        <ele>10</ele>
        <time>2020-07-20T08:39:04Z</time>
      </trkpt>
      <trkpt lat="45.88137" lon="-0.89851">
        <ele>9</ele>
        <time>2020-07-20T08:39:13Z</time>
      </trkpt>
      <trkpt lat="45.88153" lon="-0.89953">
        <ele>9</ele>
        <time>2020-07-20T08:39:26Z</time>
      </trkpt>
      <trkpt lat="45.88185" lon="-0.90096">
        <ele>9</ele>
        <time>2020-07-20T08:39:45Z</time>
      </trkpt>
      <trkpt lat="45.8819" lon="-0.90156">
        <ele>8</ele>
        <time>2020-07-20T08:39:52Z</time>
      </trkpt>
      <trkpt lat="45.8815" lon="-0.90491">
        <ele>10</ele>
        <time>2020-07-20T08:40:34Z</time>
      </trkpt>
      <trkpt lat="45.88086" lon="-0.91234">
        <ele>8</ele>
        <time>2020-07-20T08:42:07Z</time>
      </trkpt>
      <trkpt lat="45.88194" lon="-0.91269">
        <ele>11</ele>
        <time>2020-07-20T08:42:27Z</time>
      </trkpt>
      <trkpt lat="45.8824" lon="-0.91293">
        <ele>11</ele>
        <time>2020-07-20T08:42:35Z</time>
      </trkpt>
      <trkpt lat="45.88249" lon="-0.91318">
        <ele>10</ele>
        <time>2020-07-20T08:42:39Z</time>
      </trkpt>
      <trkpt lat="45.8826" lon="-0.91423">
        <ele>9</ele>
        <time>2020-07-20T08:42:52Z</time>
      </trkpt>
      <trkpt lat="45.88695" lon="-0.91419">
        <ele>7</ele>
        <time>2020-07-20T08:44:09Z</time>
      </trkpt>
      <trkpt lat="45.88817" lon="-0.91493">
        <ele>10</ele>
        <time>2020-07-20T08:44:33Z</time>
      </trkpt>
      <trkpt lat="45.88914" lon="-0.91558">
        <ele>8</ele>
        <time>2020-07-20T08:44:52Z</time>
      </trkpt>
      <trkpt lat="45.88962" lon="-0.91534">
        <ele>9</ele>
        <time>2020-07-20T08:45:01Z</time>
      </trkpt>
      <trkpt lat="45.89056" lon="-0.91542">
        <ele>9</ele>
        <time>2020-07-20T08:45:18Z</time>
      </trkpt>
      <trkpt lat="45.8907" lon="-0.91559">
        <ele>8</ele>
        <time>2020-07-20T08:45:21Z</time>
      </trkpt>
      <trkpt lat="45.89036" lon="-0.91638">
        <ele>6</ele>
        <time>2020-07-20T08:45:32Z</time>
      </trkpt>
      <trkpt lat="45.89067" lon="-0.91681">
        <ele>5</ele>
        <time>2020-07-20T08:45:40Z</time>
      </trkpt>
      <trkpt lat="45.8909" lon="-0.91638">
        <ele>6</ele>
        <time>2020-07-20T08:45:47Z</time>
      </trkpt>
      <trkpt lat="45.89122" lon="-0.91614">
        <ele>6</ele>
        <time>2020-07-20T08:45:53Z</time>
      </trkpt>
      <trkpt lat="45.89166" lon="-0.91621">
        <ele>7</ele>
        <time>2020-07-20T08:46:01Z</time>
      </trkpt>
      <trkpt lat="45.89181" lon="-0.91601">
        <ele>6</ele>
        <time>2020-07-20T08:46:05Z</time>
      </trkpt>
      <trkpt lat="45.89179" lon="-0.91582">
        <ele>6</ele>
        <time>2020-07-20T08:46:07Z</time>
      </trkpt>
      <trkpt lat="45.89194" lon="-0.91572">
        <ele>6</ele>
        <time>2020-07-20T08:46:10Z</time>
      </trkpt>
      <trkpt lat="45.89198" lon="-0.91555">
        <ele>7</ele>
        <time>2020-07-20T08:46:12Z</time>
      </trkpt>
      <trkpt lat="45.89222" lon="-0.91572">
        <ele>6</ele>
        <time>2020-07-20T08:46:17Z</time>
      </trkpt>
      <trkpt lat="45.89226" lon="-0.91585">
        <ele>6</ele>
        <time>2020-07-20T08:46:19Z</time>
      </trkpt>
      <trkpt lat="45.89263" lon="-0.91662">
        <ele>6</ele>
        <time>2020-07-20T08:46:30Z</time>
      </trkpt>
      <trkpt lat="45.89278" lon="-0.91723">
        <ele>5</ele>
        <time>2020-07-20T08:46:38Z</time>
      </trkpt>
      <trkpt lat="45.89261" lon="-0.91758">
        <ele>6</ele>
        <time>2020-07-20T08:46:44Z</time>
      </trkpt>
      <trkpt lat="45.89283" lon="-0.91862">
        <ele>4</ele>
        <time>2020-07-20T08:46:57Z</time>
      </trkpt>
      <trkpt lat="45.8927" lon="-0.919">
        <ele>4</ele>
        <time>2020-07-20T08:47:02Z</time>
      </trkpt>
      <trkpt lat="45.89297" lon="-0.91947">
        <ele>3</ele>
        <time>2020-07-20T08:47:10Z</time>
      </trkpt>
      <trkpt lat="45.89309" lon="-0.91943">
        <ele>3</ele>
        <time>2020-07-20T08:47:12Z</time>
      </trkpt>
      <trkpt lat="45.89344" lon="-0.91922">
        <ele>4</ele>
        <time>2020-07-20T08:47:19Z</time>
      </trkpt>
      <trkpt lat="45.89361" lon="-0.91944">
        <ele>3</ele>
        <time>2020-07-20T08:47:23Z</time>
      </trkpt>
      <trkpt lat="45.89376" lon="-0.91951">
        <ele>3</ele>
        <time>2020-07-20T08:47:26Z</time>
      </trkpt>
      <trkpt lat="45.89388" lon="-0.92024">
        <ele>2</ele>
        <time>2020-07-20T08:47:35Z</time>
      </trkpt>
      <trkpt lat="45.89398" lon="-0.92038">
        <ele>3</ele>
        <time>2020-07-20T08:47:38Z</time>
      </trkpt>
      <trkpt lat="45.8941" lon="-0.92082">
        <ele>4</ele>
        <time>2020-07-20T08:47:43Z</time>
      </trkpt>
      <trkpt lat="45.89413" lon="-0.92145">
        <ele>4</ele>
        <time>2020-07-20T08:47:51Z</time>
      </trkpt>
      <trkpt lat="45.89472" lon="-0.92137">
        <ele>4</ele>
        <time>2020-07-20T08:48:02Z</time>
      </trkpt>
      <trkpt lat="45.89515" lon="-0.92142">
        <ele>4</ele>
        <time>2020-07-20T08:48:09Z</time>
      </trkpt>
      <trkpt lat="45.89564" lon="-0.92165">
        <ele>4</ele>
        <time>2020-07-20T08:48:19Z</time>
      </trkpt>
      <trkpt lat="45.8957" lon="-0.92179">
        <ele>4</ele>
        <time>2020-07-20T08:48:21Z</time>
      </trkpt>
      <trkpt lat="45.89561" lon="-0.92243">
        <ele>3</ele>
        <time>2020-07-20T08:48:29Z</time>
      </trkpt>
      <trkpt lat="45.89563" lon="-0.92265">
        <ele>3</ele>
        <time>2020-07-20T08:48:31Z</time>
      </trkpt>
      <trkpt lat="45.89715" lon="-0.91917">
        <ele>3</ele>
        <time>2020-07-20T08:49:22Z</time>
      </trkpt>
      <trkpt lat="45.89759" lon="-0.91826">
        <ele>7</ele>
        <time>2020-07-20T08:49:36Z</time>
      </trkpt>
      <trkpt lat="45.8983" lon="-0.91704">
        <ele>8</ele>
        <time>2020-07-20T08:49:56Z</time>
      </trkpt>
      <trkpt lat="45.89846" lon="-0.91729">
        <ele>9</ele>
        <time>2020-07-20T08:50:00Z</time>
      </trkpt>
      <trkpt lat="45.89886" lon="-0.91851">
        <ele>9</ele>
        <time>2020-07-20T08:50:17Z</time>
      </trkpt>
      <trkpt lat="45.89988" lon="-0.92051">
        <ele>10</ele>
        <time>2020-07-20T08:50:47Z</time>
      </trkpt>
      <trkpt lat="45.90018" lon="-0.92093">
        <ele>10</ele>
        <time>2020-07-20T08:50:55Z</time>
      </trkpt>
      <trkpt lat="45.90052" lon="-0.92153">
        <ele>10</ele>
        <time>2020-07-20T08:51:04Z</time>
      </trkpt>
      <trkpt lat="45.90071" lon="-0.92152">
        <ele>11</ele>
        <time>2020-07-20T08:51:08Z</time>
      </trkpt>
      <trkpt lat="45.90089" lon="-0.92138">
        <ele>12</ele>
        <time>2020-07-20T08:51:11Z</time>
      </trkpt>
      <trkpt lat="45.90097" lon="-0.92122">
        <ele>13</ele>
        <time>2020-07-20T08:51:14Z</time>
      </trkpt>
      <trkpt lat="45.90133" lon="-0.92104">
        <ele>13</ele>
        <time>2020-07-20T08:51:21Z</time>
      </trkpt>
      <trkpt lat="45.90181" lon="-0.92084">
        <ele>14</ele>
        <time>2020-07-20T08:51:30Z</time>
      </trkpt>
      <trkpt lat="45.90248" lon="-0.92079">
        <ele>14</ele>
        <time>2020-07-20T08:51:41Z</time>
      </trkpt>
      <trkpt lat="45.90233" lon="-0.9208">
        <ele>14</ele>
        <time>2020-07-20T08:51:44Z</time>
      </trkpt>
      <trkpt lat="45.90289" lon="-0.92079">
        <ele>14</ele>
        <time>2020-07-20T08:51:54Z</time>
      </trkpt>
      <trkpt lat="45.90349" lon="-0.92026">
        <ele>13</ele>
        <time>2020-07-20T08:52:07Z</time>
      </trkpt>
      <trkpt lat="45.90266" lon="-0.92078">
        <ele>14</ele>
        <time>2020-07-20T08:52:23Z</time>
      </trkpt>
      <trkpt lat="45.90181" lon="-0.92083">
        <ele>14</ele>
        <time>2020-07-20T08:52:38Z</time>
      </trkpt>
      <trkpt lat="45.90057" lon="-0.92137">
        <ele>11</ele>
        <time>2020-07-20T08:53:01Z</time>
      </trkpt>
      <trkpt lat="45.89995" lon="-0.92039">
        <ele>10</ele>
        <time>2020-07-20T08:53:17Z</time>
      </trkpt>
      <trkpt lat="45.89891" lon="-0.91843">
        <ele>9</ele>
        <time>2020-07-20T08:53:48Z</time>
      </trkpt>
      <trkpt lat="45.89868" lon="-0.91759">
        <ele>9</ele>
        <time>2020-07-20T08:53:59Z</time>
      </trkpt>
      <trkpt lat="45.89838" lon="-0.917">
        <ele>8</ele>
        <time>2020-07-20T08:54:08Z</time>
      </trkpt>
      <trkpt lat="45.90042" lon="-0.91343">
        <ele>11</ele>
        <time>2020-07-20T08:55:05Z</time>
      </trkpt>
      <trkpt lat="45.9007" lon="-0.91276">
        <ele>12</ele>
        <time>2020-07-20T08:55:15Z</time>
      </trkpt>
      <trkpt lat="45.90106" lon="-0.91152">
        <ele>13</ele>
        <time>2020-07-20T08:55:32Z</time>
      </trkpt>
      <trkpt lat="45.90124" lon="-0.91007">
        <ele>14</ele>
        <time>2020-07-20T08:55:50Z</time>
      </trkpt>
      <trkpt lat="45.90144" lon="-0.90893">
        <ele>15</ele>
        <time>2020-07-20T08:56:04Z</time>
      </trkpt>
      <trkpt lat="45.90168" lon="-0.90664">
        <ele>17</ele>
        <time>2020-07-20T08:56:33Z</time>
      </trkpt>
      <trkpt lat="45.90189" lon="-0.90521">
        <ele>17</ele>
        <time>2020-07-20T08:56:51Z</time>
      </trkpt>
      <trkpt lat="45.9019" lon="-0.90479">
        <ele>17</ele>
        <time>2020-07-20T08:56:56Z</time>
      </trkpt>
      <trkpt lat="45.902" lon="-0.9041">
        <ele>17</ele>
        <time>2020-07-20T08:57:05Z</time>
      </trkpt>
      <trkpt lat="45.90208" lon="-0.90332">
        <ele>18</ele>
        <time>2020-07-20T08:57:15Z</time>
      </trkpt>
      <trkpt lat="45.9022" lon="-0.9027">
        <ele>18</ele>
        <time>2020-07-20T08:57:23Z</time>
      </trkpt>
      <trkpt lat="45.9022" lon="-0.90217">
        <ele>18</ele>
        <time>2020-07-20T08:57:29Z</time>
      </trkpt>
      <trkpt lat="45.90229" lon="-0.9017">
        <ele>18</ele>
        <time>2020-07-20T08:57:35Z</time>
      </trkpt>
      <trkpt lat="45.90236" lon="-0.90113">
        <ele>19</ele>
        <time>2020-07-20T08:57:43Z</time>
      </trkpt>
      <trkpt lat="45.90236" lon="-0.90087">
        <ele>19</ele>
        <time>2020-07-20T08:57:46Z</time>
      </trkpt>
      <trkpt lat="45.90242" lon="-0.90039">
        <ele>19</ele>
        <time>2020-07-20T08:57:52Z</time>
      </trkpt>
      <trkpt lat="45.90242" lon="-0.89942">
        <ele>20</ele>
        <time>2020-07-20T08:58:04Z</time>
      </trkpt>
      <trkpt lat="45.90244" lon="-0.89917">
        <ele>20</ele>
        <time>2020-07-20T08:58:07Z</time>
      </trkpt>
      <trkpt lat="45.90235" lon="-0.89772">
        <ele>18</ele>
        <time>2020-07-20T08:58:25Z</time>
      </trkpt>
      <trkpt lat="45.90221" lon="-0.89668">
        <ele>14</ele>
        <time>2020-07-20T08:58:38Z</time>
      </trkpt>
      <trkpt lat="45.90207" lon="-0.8959">
        <ele>15</ele>
        <time>2020-07-20T08:58:48Z</time>
      </trkpt>
      <trkpt lat="45.90153" lon="-0.89331">
        <ele>13</ele>
        <time>2020-07-20T08:59:22Z</time>
      </trkpt>
      <trkpt lat="45.90126" lon="-0.89179">
        <ele>12</ele>
        <time>2020-07-20T08:59:41Z</time>
      </trkpt>
      <trkpt lat="45.90114" lon="-0.89045">
        <ele>8</ele>
        <time>2020-07-20T08:59:58Z</time>
      </trkpt>
      <trkpt lat="45.90111" lon="-0.88969">
        <ele>7</ele>
        <time>2020-07-20T09:00:07Z</time>
      </trkpt>
      <trkpt lat="45.90113" lon="-0.88814">
        <ele>7</ele>
        <time>2020-07-20T09:00:26Z</time>
      </trkpt>
      <trkpt lat="45.90117" lon="-0.8874">
        <ele>8</ele>
        <time>2020-07-20T09:00:36Z</time>
      </trkpt>
      <trkpt lat="45.90135" lon="-0.88584">
        <ele>7</ele>
        <time>2020-07-20T09:00:55Z</time>
      </trkpt>
      <trkpt lat="45.90163" lon="-0.88434">
        <ele>7</ele>
        <time>2020-07-20T09:01:14Z</time>
      </trkpt>
      <trkpt lat="45.90215" lon="-0.88254">
        <ele>8</ele>
        <time>2020-07-20T09:01:38Z</time>
      </trkpt>
      <trkpt lat="45.90286" lon="-0.88042">
        <ele>9</ele>
        <time>2020-07-20T09:02:08Z</time>
      </trkpt>
      <trkpt lat="45.90294" lon="-0.87979">
        <ele>9</ele>
        <time>2020-07-20T09:02:16Z</time>
      </trkpt>
      <trkpt lat="45.90303" lon="-0.87944">
        <ele>9</ele>
        <time>2020-07-20T09:02:20Z</time>
      </trkpt>
      <trkpt lat="45.90359" lon="-0.87813">
        <ele>7</ele>
        <time>2020-07-20T09:02:39Z</time>
      </trkpt>
      <trkpt lat="45.9038" lon="-0.87747">
        <ele>5</ele>
        <time>2020-07-20T09:02:48Z</time>
      </trkpt>
      <trkpt lat="45.90406" lon="-0.87679">
        <ele>4</ele>
        <time>2020-07-20T09:02:58Z</time>
      </trkpt>
      <trkpt lat="45.90422" lon="-0.87623">
        <ele>4</ele>
        <time>2020-07-20T09:03:05Z</time>
      </trkpt>
      <trkpt lat="45.90457" lon="-0.87517">
        <ele>4</ele>
        <time>2020-07-20T09:03:20Z</time>
      </trkpt>
      <trkpt lat="45.90507" lon="-0.87381">
        <ele>6</ele>
        <time>2020-07-20T09:03:39Z</time>
      </trkpt>
      <trkpt lat="45.90544" lon="-0.87299">
        <ele>7</ele>
        <time>2020-07-20T09:03:51Z</time>
      </trkpt>
      <trkpt lat="45.9063" lon="-0.87148">
        <ele>8</ele>
        <time>2020-07-20T09:04:15Z</time>
      </trkpt>
      <trkpt lat="45.9073" lon="-0.87007">
        <ele>8</ele>
        <time>2020-07-20T09:04:40Z</time>
      </trkpt>
      <trkpt lat="45.9085" lon="-0.86826">
        <ele>5</ele>
        <time>2020-07-20T09:05:11Z</time>
      </trkpt>
      <trkpt lat="45.90845" lon="-0.86816">
        <ele>5</ele>
        <time>2020-07-20T09:05:13Z</time>
      </trkpt>
      <trkpt lat="45.90868" lon="-0.86783">
        <ele>4</ele>
        <time>2020-07-20T09:05:18Z</time>
      </trkpt>
      <trkpt lat="45.90758" lon="-0.86629">
        <ele>4</ele>
        <time>2020-07-20T09:05:46Z</time>
      </trkpt>
      <trkpt lat="45.90631" lon="-0.86532">
        <ele>3</ele>
        <time>2020-07-20T09:06:11Z</time>
      </trkpt>
      <trkpt lat="45.90641" lon="-0.86509">
        <ele>3</ele>
        <time>2020-07-20T09:06:15Z</time>
      </trkpt>
      <trkpt lat="45.9058" lon="-0.86453">
        <ele>4</ele>
        <time>2020-07-20T09:06:27Z</time>
      </trkpt>
      <trkpt lat="45.90513" lon="-0.8636">
        <ele>3</ele>
        <time>2020-07-20T09:06:44Z</time>
      </trkpt>
      <trkpt lat="45.90479" lon="-0.86294">
        <ele>3</ele>
        <time>2020-07-20T09:06:54Z</time>
      </trkpt>
      <trkpt lat="45.90458" lon="-0.8622">
        <ele>2</ele>
        <time>2020-07-20T09:07:04Z</time>
      </trkpt>
      <trkpt lat="45.90354" lon="-0.85685">
        <ele>4</ele>
        <time>2020-07-20T09:08:13Z</time>
      </trkpt>
      <trkpt lat="45.90297" lon="-0.85366">
        <ele>3</ele>
        <time>2020-07-20T09:08:54Z</time>
      </trkpt>
      <trkpt lat="45.90259" lon="-0.84933">
        <ele>2</ele>
        <time>2020-07-20T09:09:48Z</time>
      </trkpt>
      <trkpt lat="45.90242" lon="-0.84787">
        <ele>4</ele>
        <time>2020-07-20T09:10:06Z</time>
      </trkpt>
      <trkpt lat="45.90212" lon="-0.84426">
        <ele>2</ele>
        <time>2020-07-20T09:10:51Z</time>
      </trkpt>
      <trkpt lat="45.90187" lon="-0.84161">
        <ele>2</ele>
        <time>2020-07-20T09:11:24Z</time>
      </trkpt>
      <trkpt lat="45.90108" lon="-0.83847">
        <ele>2</ele>
        <time>2020-07-20T09:12:05Z</time>
      </trkpt>
      <trkpt lat="45.89935" lon="-0.83339">
        <ele>4</ele>
        <time>2020-07-20T09:13:16Z</time>
      </trkpt>
      <trkpt lat="45.89766" lon="-0.82832">
        <ele>1</ele>
        <time>2020-07-20T09:14:25Z</time>
      </trkpt>
      <trkpt lat="45.89728" lon="-0.82753">
        <ele>2</ele>
        <time>2020-07-20T09:14:37Z</time>
      </trkpt>
      <trkpt lat="45.89563" lon="-0.82589">
        <ele>2</ele>
        <time>2020-07-20T09:15:13Z</time>
      </trkpt>
      <trkpt lat="45.89001" lon="-0.82113">
        <ele>2</ele>
        <time>2020-07-20T09:17:09Z</time>
      </trkpt>
      <trkpt lat="45.88936" lon="-0.82043">
        <ele>2</ele>
        <time>2020-07-20T09:17:23Z</time>
      </trkpt>
      <trkpt lat="45.88513" lon="-0.81451">
        <ele>3</ele>
        <time>2020-07-20T09:19:08Z</time>
      </trkpt>
      <trkpt lat="45.88474" lon="-0.81496">
        <ele>5</ele>
        <time>2020-07-20T09:19:17Z</time>
      </trkpt>
      <trkpt lat="45.88412" lon="-0.81418">
        <ele>5</ele>
        <time>2020-07-20T09:19:32Z</time>
      </trkpt>
      <trkpt lat="45.88389" lon="-0.81396">
        <ele>5</ele>
        <time>2020-07-20T09:19:37Z</time>
      </trkpt>
      <trkpt lat="45.88358" lon="-0.81373">
        <ele>4</ele>
        <time>2020-07-20T09:19:43Z</time>
      </trkpt>
      <trkpt lat="45.88344" lon="-0.81415">
        <ele>5</ele>
        <time>2020-07-20T09:19:49Z</time>
      </trkpt>
      <trkpt lat="45.88325" lon="-0.81449">
        <ele>6</ele>
        <time>2020-07-20T09:19:54Z</time>
      </trkpt>
      <trkpt lat="45.88293" lon="-0.81467">
        <ele>7</ele>
        <time>2020-07-20T09:20:00Z</time>
      </trkpt>
      <trkpt lat="45.88277" lon="-0.81507">
        <ele>8</ele>
        <time>2020-07-20T09:20:06Z</time>
      </trkpt>
      <trkpt lat="45.88192" lon="-0.81392">
        <ele>5</ele>
        <time>2020-07-20T09:20:27Z</time>
      </trkpt>
      <trkpt lat="45.8817" lon="-0.81358">
        <ele>4</ele>
        <time>2020-07-20T09:20:33Z</time>
      </trkpt>
      <trkpt lat="45.88162" lon="-0.81325">
        <ele>4</ele>
        <time>2020-07-20T09:20:37Z</time>
      </trkpt>
      <trkpt lat="45.88146" lon="-0.81295">
        <ele>4</ele>
        <time>2020-07-20T09:20:42Z</time>
      </trkpt>
      <trkpt lat="45.88133" lon="-0.81276">
        <ele>4</ele>
        <time>2020-07-20T09:20:45Z</time>
      </trkpt>
      <trkpt lat="45.88087" lon="-0.81236">
        <ele>5</ele>
        <time>2020-07-20T09:20:54Z</time>
      </trkpt>
      <trkpt lat="45.88043" lon="-0.81184">
        <ele>3</ele>
        <time>2020-07-20T09:21:05Z</time>
      </trkpt>
      <trkpt lat="45.88006" lon="-0.81157">
        <ele>2</ele>
        <time>2020-07-20T09:21:12Z</time>
      </trkpt>
      <trkpt lat="45.8793" lon="-0.81119">
        <ele>2</ele>
        <time>2020-07-20T09:21:26Z</time>
      </trkpt>
      <trkpt lat="45.87904" lon="-0.81112">
        <ele>2</ele>
        <time>2020-07-20T09:21:31Z</time>
      </trkpt>
      <trkpt lat="45.8783" lon="-0.81129">
        <ele>2</ele>
        <time>2020-07-20T09:21:44Z</time>
      </trkpt>
      <trkpt lat="45.87807" lon="-0.81145">
        <ele>2</ele>
        <time>2020-07-20T09:21:49Z</time>
      </trkpt>
      <trkpt lat="45.87793" lon="-0.81174">
        <ele>2</ele>
        <time>2020-07-20T09:21:53Z</time>
      </trkpt>
      <trkpt lat="45.87723" lon="-0.81355">
        <ele>2</ele>
        <time>2020-07-20T09:22:19Z</time>
      </trkpt>
      <trkpt lat="45.87709" lon="-0.81414">
        <ele>2</ele>
        <time>2020-07-20T09:22:27Z</time>
      </trkpt>
      <trkpt lat="45.87633" lon="-0.81672">
        <ele>3</ele>
        <time>2020-07-20T09:23:01Z</time>
      </trkpt>
      <trkpt lat="45.87604" lon="-0.81707">
        <ele>5</ele>
        <time>2020-07-20T09:23:08Z</time>
      </trkpt>
      <trkpt lat="45.87573" lon="-0.81718">
        <ele>5</ele>
        <time>2020-07-20T09:23:14Z</time>
      </trkpt>
      <trkpt lat="45.87518" lon="-0.81707">
        <ele>5</ele>
        <time>2020-07-20T09:23:24Z</time>
      </trkpt>
      <trkpt lat="45.87482" lon="-0.81708">
        <ele>5</ele>
        <time>2020-07-20T09:23:30Z</time>
      </trkpt>
      <trkpt lat="45.87462" lon="-0.81718">
        <ele>5</ele>
        <time>2020-07-20T09:23:34Z</time>
      </trkpt>
      <trkpt lat="45.87444" lon="-0.81746">
        <ele>6</ele>
        <time>2020-07-20T09:23:38Z</time>
      </trkpt>
      <trkpt lat="45.87429" lon="-0.81784">
        <ele>6</ele>
        <time>2020-07-20T09:23:44Z</time>
      </trkpt>
      <trkpt lat="45.87356" lon="-0.81778">
        <ele>4</ele>
        <time>2020-07-20T09:23:57Z</time>
      </trkpt>
      <trkpt lat="45.8732" lon="-0.81778">
        <ele>4</ele>
        <time>2020-07-20T09:24:03Z</time>
      </trkpt>
      <trkpt lat="45.87092" lon="-0.81684">
        <ele>22</ele>
        <time>2020-07-20T09:24:46Z</time>
      </trkpt>
      <trkpt lat="45.87008" lon="-0.81653">
        <ele>25</ele>
        <time>2020-07-20T09:25:01Z</time>
      </trkpt>
      <trkpt lat="45.86991" lon="-0.81635">
        <ele>26</ele>
        <time>2020-07-20T09:25:05Z</time>
      </trkpt>
      <trkpt lat="45.8698" lon="-0.816">
        <ele>27</ele>
        <time>2020-07-20T09:25:09Z</time>
      </trkpt>
      <trkpt lat="45.86967" lon="-0.81527">
        <ele>27</ele>
        <time>2020-07-20T09:25:19Z</time>
      </trkpt>
      <trkpt lat="45.86961" lon="-0.81405">
        <ele>25</ele>
        <time>2020-07-20T09:25:34Z</time>
      </trkpt>
      <trkpt lat="45.86927" lon="-0.80979">
        <ele>25</ele>
        <time>2020-07-20T09:26:27Z</time>
      </trkpt>
      <trkpt lat="45.87008" lon="-0.80912">
        <ele>24</ele>
        <time>2020-07-20T09:26:44Z</time>
      </trkpt>
      <trkpt lat="45.87021" lon="-0.80887">
        <ele>23</ele>
        <time>2020-07-20T09:26:48Z</time>
      </trkpt>
      <trkpt lat="45.8703" lon="-0.80852">
        <ele>23</ele>
        <time>2020-07-20T09:26:52Z</time>
      </trkpt>
      <trkpt lat="45.87042" lon="-0.80847">
        <ele>23</ele>
        <time>2020-07-20T09:26:54Z</time>
      </trkpt>
      <trkpt lat="45.87119" lon="-0.80763">
        <ele>20</ele>
        <time>2020-07-20T09:27:12Z</time>
      </trkpt>
      <trkpt lat="45.87133" lon="-0.80753">
        <ele>19</ele>
        <time>2020-07-20T09:27:14Z</time>
      </trkpt>
      <trkpt lat="45.87155" lon="-0.80749">
        <ele>18</ele>
        <time>2020-07-20T09:27:18Z</time>
      </trkpt>
      <trkpt lat="45.87211" lon="-0.8077">
        <ele>15</ele>
        <time>2020-07-20T09:27:29Z</time>
      </trkpt>
      <trkpt lat="45.87259" lon="-0.80783">
        <ele>12</ele>
        <time>2020-07-20T09:27:37Z</time>
      </trkpt>
      <trkpt lat="45.87279" lon="-0.80787">
        <ele>10</ele>
        <time>2020-07-20T09:27:41Z</time>
      </trkpt>
      <trkpt lat="45.87316" lon="-0.80787">
        <ele>8</ele>
        <time>2020-07-20T09:27:48Z</time>
      </trkpt>
      <trkpt lat="45.87344" lon="-0.80779">
        <ele>7</ele>
        <time>2020-07-20T09:27:53Z</time>
      </trkpt>
      <trkpt lat="45.87364" lon="-0.80764">
        <ele>7</ele>
        <time>2020-07-20T09:27:57Z</time>
      </trkpt>
      <trkpt lat="45.8739" lon="-0.80738">
        <ele>7</ele>
        <time>2020-07-20T09:28:02Z</time>
      </trkpt>
      <trkpt lat="45.87412" lon="-0.80725">
        <ele>6</ele>
        <time>2020-07-20T09:28:06Z</time>
      </trkpt>
      <trkpt lat="45.87427" lon="-0.80741">
        <ele>5</ele>
        <time>2020-07-20T09:28:10Z</time>
      </trkpt>
      <trkpt lat="45.87442" lon="-0.80772">
        <ele>4</ele>
        <time>2020-07-20T09:28:14Z</time>
      </trkpt>
      <trkpt lat="45.8745" lon="-0.808">
        <ele>3</ele>
        <time>2020-07-20T09:28:18Z</time>
      </trkpt>
      <trkpt lat="45.87489" lon="-0.8078">
        <ele>2</ele>
        <time>2020-07-20T09:28:26Z</time>
      </trkpt>
      <trkpt lat="45.87532" lon="-0.8075">
        <ele>2</ele>
        <time>2020-07-20T09:28:34Z</time>
      </trkpt>
      <trkpt lat="45.87927" lon="-0.80495">
        <ele>2</ele>
        <time>2020-07-20T09:29:51Z</time>
      </trkpt>
      <trkpt lat="45.87804" lon="-0.80087">
        <ele>2</ele>
        <time>2020-07-20T09:30:46Z</time>
      </trkpt>
      <trkpt lat="45.87786" lon="-0.80019">
        <ele>3</ele>
        <time>2020-07-20T09:30:55Z</time>
      </trkpt>
      <trkpt lat="45.87739" lon="-0.79659">
        <ele>3</ele>
        <time>2020-07-20T09:31:41Z</time>
      </trkpt>
      <trkpt lat="45.8771" lon="-0.79662">
        <ele>4</ele>
        <time>2020-07-20T09:31:46Z</time>
      </trkpt>
      <trkpt lat="45.87703" lon="-0.7958">
        <ele>5</ele>
        <time>2020-07-20T09:31:56Z</time>
      </trkpt>
      <trkpt lat="45.87682" lon="-0.79509">
        <ele>5</ele>
        <time>2020-07-20T09:32:06Z</time>
      </trkpt>
      <trkpt lat="45.87636" lon="-0.79392">
        <ele>6</ele>
        <time>2020-07-20T09:32:22Z</time>
      </trkpt>
      <trkpt lat="45.87596" lon="-0.79335">
        <ele>5</ele>
        <time>2020-07-20T09:32:32Z</time>
      </trkpt>
      <trkpt lat="45.87565" lon="-0.79321">
        <ele>5</ele>
        <time>2020-07-20T09:32:38Z</time>
      </trkpt>
      <trkpt lat="45.87505" lon="-0.79334">
        <ele>8</ele>
        <time>2020-07-20T09:32:49Z</time>
      </trkpt>
      <trkpt lat="45.87475" lon="-0.79337">
        <ele>10</ele>
        <time>2020-07-20T09:32:54Z</time>
      </trkpt>
      <trkpt lat="45.87423" lon="-0.79311">
        <ele>12</ele>
        <time>2020-07-20T09:33:04Z</time>
      </trkpt>
      <trkpt lat="45.87372" lon="-0.79117">
        <ele>5</ele>
        <time>2020-07-20T09:33:30Z</time>
      </trkpt>
      <trkpt lat="45.87373" lon="-0.79026">
        <ele>5</ele>
        <time>2020-07-20T09:33:41Z</time>
      </trkpt>
      <trkpt lat="45.87368" lon="-0.78963">
        <ele>5</ele>
        <time>2020-07-20T09:33:49Z</time>
      </trkpt>
      <trkpt lat="45.87333" lon="-0.78683">
        <ele>1</ele>
        <time>2020-07-20T09:34:24Z</time>
      </trkpt>
      <trkpt lat="45.87331" lon="-0.7863">
        <ele>2</ele>
        <time>2020-07-20T09:34:31Z</time>
      </trkpt>
      <trkpt lat="45.87701" lon="-0.78553">
        <ele>2</ele>
        <time>2020-07-20T09:35:37Z</time>
      </trkpt>
      <trkpt lat="45.87732" lon="-0.78553">
        <ele>2</ele>
        <time>2020-07-20T09:35:43Z</time>
      </trkpt>
      <trkpt lat="45.8776" lon="-0.78114">
        <ele>1</ele>
        <time>2020-07-20T09:36:37Z</time>
      </trkpt>
      <trkpt lat="45.87825" lon="-0.77458">
        <ele>2</ele>
        <time>2020-07-20T09:37:59Z</time>
      </trkpt>
      <trkpt lat="45.87836" lon="-0.77372">
        <ele>1</ele>
        <time>2020-07-20T09:38:10Z</time>
      </trkpt>
      <trkpt lat="45.87848" lon="-0.77116">
        <ele>2</ele>
        <time>2020-07-20T09:38:42Z</time>
      </trkpt>
      <trkpt lat="45.87845" lon="-0.76824">
        <ele>1</ele>
        <time>2020-07-20T09:39:18Z</time>
      </trkpt>
      <trkpt lat="45.87585" lon="-0.76872">
        <ele>2</ele>
        <time>2020-07-20T09:40:05Z</time>
      </trkpt>
      <trkpt lat="45.87532" lon="-0.76877">
        <ele>4</ele>
        <time>2020-07-20T09:40:14Z</time>
      </trkpt>
      <trkpt lat="45.87505" lon="-0.76859">
        <ele>5</ele>
        <time>2020-07-20T09:40:19Z</time>
      </trkpt>
      <trkpt lat="45.87464" lon="-0.7639">
        <ele>3</ele>
        <time>2020-07-20T09:41:18Z</time>
      </trkpt>
      <trkpt lat="45.87443" lon="-0.76364">
        <ele>4</ele>
        <time>2020-07-20T09:41:23Z</time>
      </trkpt>
      <trkpt lat="45.87327" lon="-0.76391">
        <ele>12</ele>
        <time>2020-07-20T09:41:44Z</time>
      </trkpt>
      <trkpt lat="45.87284" lon="-0.76397">
        <ele>15</ele>
        <time>2020-07-20T09:41:52Z</time>
      </trkpt>
      <trkpt lat="45.87243" lon="-0.76384">
        <ele>16</ele>
        <time>2020-07-20T09:41:59Z</time>
      </trkpt>
      <trkpt lat="45.87179" lon="-0.76397">
        <ele>20</ele>
        <time>2020-07-20T09:42:11Z</time>
      </trkpt>
      <trkpt lat="45.87146" lon="-0.76264">
        <ele>17</ele>
        <time>2020-07-20T09:42:28Z</time>
      </trkpt>
      <trkpt lat="45.87178" lon="-0.76241">
        <ele>17</ele>
        <time>2020-07-20T09:42:34Z</time>
      </trkpt>
      <trkpt lat="45.8725" lon="-0.76235">
        <ele>13</ele>
        <time>2020-07-20T09:42:47Z</time>
      </trkpt>
      <trkpt lat="45.87309" lon="-0.76206">
        <ele>9</ele>
        <time>2020-07-20T09:42:58Z</time>
      </trkpt>
      <trkpt lat="45.8734" lon="-0.76159">
        <ele>6</ele>
        <time>2020-07-20T09:43:06Z</time>
      </trkpt>
      <trkpt lat="45.87376" lon="-0.76119">
        <ele>5</ele>
        <time>2020-07-20T09:43:14Z</time>
      </trkpt>
      <trkpt lat="45.87407" lon="-0.76058">
        <ele>5</ele>
        <time>2020-07-20T09:43:24Z</time>
      </trkpt>
      <trkpt lat="45.87427" lon="-0.75984">
        <ele>4</ele>
        <time>2020-07-20T09:43:34Z</time>
      </trkpt>
      <trkpt lat="45.87436" lon="-0.75878">
        <ele>5</ele>
        <time>2020-07-20T09:43:47Z</time>
      </trkpt>
      <trkpt lat="45.8744" lon="-0.75704">
        <ele>5</ele>
        <time>2020-07-20T09:44:08Z</time>
      </trkpt>
      <trkpt lat="45.87432" lon="-0.75668">
        <ele>5</ele>
        <time>2020-07-20T09:44:13Z</time>
      </trkpt>
      <trkpt lat="45.87456" lon="-0.75661">
        <ele>5</ele>
        <time>2020-07-20T09:44:17Z</time>
      </trkpt>
      <trkpt lat="45.87476" lon="-0.75627">
        <ele>4</ele>
        <time>2020-07-20T09:44:23Z</time>
      </trkpt>
      <trkpt lat="45.87498" lon="-0.75597">
        <ele>3</ele>
        <time>2020-07-20T09:44:28Z</time>
      </trkpt>
      <trkpt lat="45.87511" lon="-0.75554">
        <ele>3</ele>
        <time>2020-07-20T09:44:34Z</time>
      </trkpt>
      <trkpt lat="45.87516" lon="-0.75508">
        <ele>4</ele>
        <time>2020-07-20T09:44:40Z</time>
      </trkpt>
      <trkpt lat="45.87516" lon="-0.75423">
        <ele>4</ele>
        <time>2020-07-20T09:44:50Z</time>
      </trkpt>
      <trkpt lat="45.87532" lon="-0.75203">
        <ele>4</ele>
        <time>2020-07-20T09:45:18Z</time>
      </trkpt>
      <trkpt lat="45.877" lon="-0.75099">
        <ele>2</ele>
        <time>2020-07-20T09:45:50Z</time>
      </trkpt>
      <trkpt lat="45.87821" lon="-0.75093">
        <ele>2</ele>
        <time>2020-07-20T09:46:12Z</time>
      </trkpt>
      <trkpt lat="45.87809" lon="-0.74406">
        <ele>2</ele>
        <time>2020-07-20T09:47:37Z</time>
      </trkpt>
      <trkpt lat="45.876" lon="-0.74423">
        <ele>3</ele>
        <time>2020-07-20T09:48:14Z</time>
      </trkpt>
      <trkpt lat="45.87462" lon="-0.74437">
        <ele>3</ele>
        <time>2020-07-20T09:48:39Z</time>
      </trkpt>
      <trkpt lat="45.87461" lon="-0.74422">
        <ele>3</ele>
        <time>2020-07-20T09:48:41Z</time>
      </trkpt>
      <trkpt lat="45.87421" lon="-0.74411">
        <ele>3</ele>
        <time>2020-07-20T09:48:48Z</time>
      </trkpt>
      <trkpt lat="45.87376" lon="-0.74415">
        <ele>5</ele>
        <time>2020-07-20T09:48:56Z</time>
      </trkpt>
      <trkpt lat="45.87344" lon="-0.74433">
        <ele>6</ele>
        <time>2020-07-20T09:49:02Z</time>
      </trkpt>
      <trkpt lat="45.87292" lon="-0.7448">
        <ele>7</ele>
        <time>2020-07-20T09:49:13Z</time>
      </trkpt>
      <trkpt lat="45.87258" lon="-0.74501">
        <ele>8</ele>
        <time>2020-07-20T09:49:20Z</time>
      </trkpt>
      <trkpt lat="45.87238" lon="-0.7449">
        <ele>9</ele>
        <time>2020-07-20T09:49:24Z</time>
      </trkpt>
      <trkpt lat="45.87163" lon="-0.74403">
        <ele>10</ele>
        <time>2020-07-20T09:49:41Z</time>
      </trkpt>
      <trkpt lat="45.87056" lon="-0.74343">
        <ele>10</ele>
        <time>2020-07-20T09:50:01Z</time>
      </trkpt>
      <trkpt lat="45.87027" lon="-0.74316">
        <ele>10</ele>
        <time>2020-07-20T09:50:07Z</time>
      </trkpt>
      <trkpt lat="45.86996" lon="-0.74273">
        <ele>9</ele>
        <time>2020-07-20T09:50:15Z</time>
      </trkpt>
      <trkpt lat="45.8694" lon="-0.74245">
        <ele>8</ele>
        <time>2020-07-20T09:50:26Z</time>
      </trkpt>
      <trkpt lat="45.86879" lon="-0.74247">
        <ele>7</ele>
        <time>2020-07-20T09:50:36Z</time>
      </trkpt>
      <trkpt lat="45.86845" lon="-0.74257">
        <ele>7</ele>
        <time>2020-07-20T09:50:43Z</time>
      </trkpt>
      <trkpt lat="45.8681" lon="-0.74212">
        <ele>8</ele>
        <time>2020-07-20T09:50:51Z</time>
      </trkpt>
      <trkpt lat="45.868" lon="-0.74104">
        <ele>9</ele>
        <time>2020-07-20T09:51:04Z</time>
      </trkpt>
      <trkpt lat="45.86783" lon="-0.7405">
        <ele>10</ele>
        <time>2020-07-20T09:51:12Z</time>
      </trkpt>
      <trkpt lat="45.86754" lon="-0.73975">
        <ele>9</ele>
        <time>2020-07-20T09:51:22Z</time>
      </trkpt>
      <trkpt lat="45.86738" lon="-0.73916">
        <ele>10</ele>
        <time>2020-07-20T09:51:30Z</time>
      </trkpt>
      <trkpt lat="45.86717" lon="-0.73866">
        <ele>9</ele>
        <time>2020-07-20T09:51:37Z</time>
      </trkpt>
      <trkpt lat="45.86767" lon="-0.73818">
        <ele>10</ele>
        <time>2020-07-20T09:51:48Z</time>
      </trkpt>
      <trkpt lat="45.86771" lon="-0.73783">
        <ele>10</ele>
        <time>2020-07-20T09:51:53Z</time>
      </trkpt>
      <trkpt lat="45.86771" lon="-0.73728">
        <ele>9</ele>
        <time>2020-07-20T09:51:59Z</time>
      </trkpt>
      <trkpt lat="45.86789" lon="-0.73677">
        <ele>8</ele>
        <time>2020-07-20T09:52:06Z</time>
      </trkpt>
      <trkpt lat="45.86836" lon="-0.73645">
        <ele>9</ele>
        <time>2020-07-20T09:52:16Z</time>
      </trkpt>
      <trkpt lat="45.86886" lon="-0.73632">
        <ele>8</ele>
        <time>2020-07-20T09:52:25Z</time>
      </trkpt>
      <trkpt lat="45.86911" lon="-0.73578">
        <ele>6</ele>
        <time>2020-07-20T09:52:33Z</time>
      </trkpt>
      <trkpt lat="45.86888" lon="-0.73551">
        <ele>6</ele>
        <time>2020-07-20T09:52:38Z</time>
      </trkpt>
      <trkpt lat="45.86855" lon="-0.73474">
        <ele>4</ele>
        <time>2020-07-20T09:52:49Z</time>
      </trkpt>
      <trkpt lat="45.868" lon="-0.73332">
        <ele>3</ele>
        <time>2020-07-20T09:53:09Z</time>
      </trkpt>
      <trkpt lat="45.8676" lon="-0.73216">
        <ele>3</ele>
        <time>2020-07-20T09:53:25Z</time>
      </trkpt>
      <trkpt lat="45.86759" lon="-0.73203">
        <ele>2</ele>
        <time>2020-07-20T09:53:27Z</time>
      </trkpt>
      <trkpt lat="45.86743" lon="-0.73196">
        <ele>2</ele>
        <time>2020-07-20T09:53:30Z</time>
      </trkpt>
      <trkpt lat="45.86719" lon="-0.73148">
        <ele>2</ele>
        <time>2020-07-20T09:53:37Z</time>
      </trkpt>
      <trkpt lat="45.86615" lon="-0.72958">
        <ele>3</ele>
        <time>2020-07-20T09:54:07Z</time>
      </trkpt>
      <trkpt lat="45.86512" lon="-0.72791">
        <ele>2</ele>
        <time>2020-07-20T09:54:35Z</time>
      </trkpt>
      <trkpt lat="45.86432" lon="-0.72632">
        <ele>3</ele>
        <time>2020-07-20T09:54:59Z</time>
      </trkpt>
      <trkpt lat="45.86425" lon="-0.72603">
        <ele>3</ele>
        <time>2020-07-20T09:55:03Z</time>
      </trkpt>
      <trkpt lat="45.86412" lon="-0.7259">
        <ele>3</ele>
        <time>2020-07-20T09:55:06Z</time>
      </trkpt>
      <trkpt lat="45.86403" lon="-0.7256">
        <ele>4</ele>
        <time>2020-07-20T09:55:10Z</time>
      </trkpt>
      <trkpt lat="45.86341" lon="-0.72208">
        <ele>2</ele>
        <time>2020-07-20T09:55:55Z</time>
      </trkpt>
      <trkpt lat="45.86273" lon="-0.71909">
        <ele>1</ele>
        <time>2020-07-20T09:56:34Z</time>
      </trkpt>
      <trkpt lat="45.86206" lon="-0.71644">
        <ele>2</ele>
        <time>2020-07-20T09:57:09Z</time>
      </trkpt>
      <trkpt lat="45.86121" lon="-0.71325">
        <ele>3</ele>
        <time>2020-07-20T09:57:51Z</time>
      </trkpt>
      <trkpt lat="45.85838" lon="-0.71529">
        <ele>3</ele>
        <time>2020-07-20T09:58:47Z</time>
      </trkpt>
      <trkpt lat="45.85824" lon="-0.71391">
        <ele>2</ele>
        <time>2020-07-20T09:59:05Z</time>
      </trkpt>
      <trkpt lat="45.85793" lon="-0.71353">
        <ele>2</ele>
        <time>2020-07-20T09:59:12Z</time>
      </trkpt>
      <trkpt lat="45.85781" lon="-0.71296">
        <ele>1</ele>
        <time>2020-07-20T09:59:19Z</time>
      </trkpt>
      <trkpt lat="45.85764" lon="-0.71242">
        <ele>1</ele>
        <time>2020-07-20T09:59:27Z</time>
      </trkpt>
      <trkpt lat="45.85638" lon="-0.71191">
        <ele>3</ele>
        <time>2020-07-20T09:59:50Z</time>
      </trkpt>
      <trkpt lat="45.8544" lon="-0.70855">
        <ele>4</ele>
        <time>2020-07-20T10:00:45Z</time>
      </trkpt>
      <trkpt lat="45.85413" lon="-0.70774">
        <ele>3</ele>
        <time>2020-07-20T10:00:56Z</time>
      </trkpt>
      <trkpt lat="45.85292" lon="-0.70613">
        <ele>5</ele>
        <time>2020-07-20T10:01:25Z</time>
      </trkpt>
      <trkpt lat="45.85232" lon="-0.70673">
        <ele>9</ele>
        <time>2020-07-20T10:01:38Z</time>
      </trkpt>
      <trkpt lat="45.85192" lon="-0.70603">
        <ele>10</ele>
        <time>2020-07-20T10:01:49Z</time>
      </trkpt>
      <trkpt lat="45.8516" lon="-0.70553">
        <ele>11</ele>
        <time>2020-07-20T10:01:58Z</time>
      </trkpt>
      <trkpt lat="45.85131" lon="-0.70534">
        <ele>12</ele>
        <time>2020-07-20T10:02:03Z</time>
      </trkpt>
      <trkpt lat="45.85093" lon="-0.70475">
        <ele>13</ele>
        <time>2020-07-20T10:02:13Z</time>
      </trkpt>
      <trkpt lat="45.85081" lon="-0.70474">
        <ele>14</ele>
        <time>2020-07-20T10:02:15Z</time>
      </trkpt>
      <trkpt lat="45.85015" lon="-0.70562">
        <ele>17</ele>
        <time>2020-07-20T10:02:31Z</time>
      </trkpt>
      <trkpt lat="45.85011" lon="-0.7048">
        <ele>16</ele>
        <time>2020-07-20T10:02:42Z</time>
      </trkpt>
      <trkpt lat="45.84996" lon="-0.70419">
        <ele>15</ele>
        <time>2020-07-20T10:02:50Z</time>
      </trkpt>
      <trkpt lat="45.84969" lon="-0.70378">
        <ele>15</ele>
        <time>2020-07-20T10:02:57Z</time>
      </trkpt>
      <trkpt lat="45.84957" lon="-0.70382">
        <ele>15</ele>
        <time>2020-07-20T10:02:59Z</time>
      </trkpt>
      <trkpt lat="45.84943" lon="-0.70359">
        <ele>15</ele>
        <time>2020-07-20T10:03:03Z</time>
      </trkpt>
      <trkpt lat="45.84913" lon="-0.70289">
        <ele>13</ele>
        <time>2020-07-20T10:03:13Z</time>
      </trkpt>
      <trkpt lat="45.84899" lon="-0.70279">
        <ele>13</ele>
        <time>2020-07-20T10:03:16Z</time>
      </trkpt>
      <trkpt lat="45.84949" lon="-0.70186">
        <ele>7</ele>
        <time>2020-07-20T10:03:30Z</time>
      </trkpt>
      <trkpt lat="45.84918" lon="-0.70032">
        <ele>3</ele>
        <time>2020-07-20T10:03:50Z</time>
      </trkpt>
      <trkpt lat="45.8499" lon="-0.69913">
        <ele>1</ele>
        <time>2020-07-20T10:04:10Z</time>
      </trkpt>
      <trkpt lat="45.85044" lon="-0.69838">
        <ele>4</ele>
        <time>2020-07-20T10:04:23Z</time>
      </trkpt>
      <trkpt lat="45.85176" lon="-0.69701">
        <ele>2</ele>
        <time>2020-07-20T10:04:52Z</time>
      </trkpt>
      <trkpt lat="45.84983" lon="-0.69259">
        <ele>2</ele>
        <time>2020-07-20T10:05:57Z</time>
      </trkpt>
      <trkpt lat="45.84738" lon="-0.6948">
        <ele>3</ele>
        <time>2020-07-20T10:06:48Z</time>
      </trkpt>
      <trkpt lat="45.84718" lon="-0.69471">
        <ele>3</ele>
        <time>2020-07-20T10:06:52Z</time>
      </trkpt>
      <trkpt lat="45.84651" lon="-0.69288">
        <ele>3</ele>
        <time>2020-07-20T10:07:17Z</time>
      </trkpt>
      <trkpt lat="45.84631" lon="-0.69264">
        <ele>3</ele>
        <time>2020-07-20T10:07:22Z</time>
      </trkpt>
      <trkpt lat="45.84543" lon="-0.69327">
        <ele>6</ele>
        <time>2020-07-20T10:07:40Z</time>
      </trkpt>
      <trkpt lat="45.84541" lon="-0.69388">
        <ele>8</ele>
        <time>2020-07-20T10:07:47Z</time>
      </trkpt>
      <trkpt lat="45.84555" lon="-0.69447">
        <ele>8</ele>
        <time>2020-07-20T10:07:55Z</time>
      </trkpt>
      <trkpt lat="45.84459" lon="-0.69549">
        <ele>13</ele>
        <time>2020-07-20T10:08:16Z</time>
      </trkpt>
      <trkpt lat="45.84425" lon="-0.69459">
        <ele>11</ele>
        <time>2020-07-20T10:08:29Z</time>
      </trkpt>
      <trkpt lat="45.84342" lon="-0.69217">
        <ele>9</ele>
        <time>2020-07-20T10:09:02Z</time>
      </trkpt>
      <trkpt lat="45.84298" lon="-0.69118">
        <ele>10</ele>
        <time>2020-07-20T10:09:17Z</time>
      </trkpt>
      <trkpt lat="45.84246" lon="-0.69028">
        <ele>6</ele>
        <time>2020-07-20T10:09:31Z</time>
      </trkpt>
      <trkpt lat="45.84104" lon="-0.68844">
        <ele>9</ele>
        <time>2020-07-20T10:10:05Z</time>
      </trkpt>
      <trkpt lat="45.83979" lon="-0.68697">
        <ele>15</ele>
        <time>2020-07-20T10:10:34Z</time>
      </trkpt>
      <trkpt lat="45.83911" lon="-0.68582">
        <ele>17</ele>
        <time>2020-07-20T10:10:53Z</time>
      </trkpt>
      <trkpt lat="45.83879" lon="-0.68546">
        <ele>17</ele>
        <time>2020-07-20T10:11:00Z</time>
      </trkpt>
      <trkpt lat="45.83884" lon="-0.68463">
        <ele>17</ele>
        <time>2020-07-20T10:11:10Z</time>
      </trkpt>
      <trkpt lat="45.83911" lon="-0.68378">
        <ele>16</ele>
        <time>2020-07-20T10:11:22Z</time>
      </trkpt>
      <trkpt lat="45.83943" lon="-0.6829">
        <ele>12</ele>
        <time>2020-07-20T10:11:34Z</time>
      </trkpt>
      <trkpt lat="45.83889" lon="-0.68237">
        <ele>12</ele>
        <time>2020-07-20T10:11:46Z</time>
      </trkpt>
      <trkpt lat="45.83775" lon="-0.68161">
        <ele>11</ele>
        <time>2020-07-20T10:12:08Z</time>
      </trkpt>
      <trkpt lat="45.83671" lon="-0.68066">
        <ele>12</ele>
        <time>2020-07-20T10:12:30Z</time>
      </trkpt>
      <trkpt lat="45.83606" lon="-0.67995">
        <ele>10</ele>
        <time>2020-07-20T10:12:45Z</time>
      </trkpt>
      <trkpt lat="45.83554" lon="-0.67972">
        <ele>10</ele>
        <time>2020-07-20T10:12:54Z</time>
      </trkpt>
      <trkpt lat="45.83484" lon="-0.67878">
        <ele>9</ele>
        <time>2020-07-20T10:13:11Z</time>
      </trkpt>
      <trkpt lat="45.83432" lon="-0.67815">
        <ele>8</ele>
        <time>2020-07-20T10:13:24Z</time>
      </trkpt>
    </trkseg>
  </trk>
</gpx>